<?xml version="1.0" encoding="UTF-8" standalone="no" ?>
<gpx xmlns="http://www.topografix.com/GPX/1/1" xmlns:xsi="http://www.w3.org/2001/XMLSchema-instance" xsi:schemaLocation="http://www.topografix.com/GPX/1/1 http://www.topografix.com/GPX/1/1/gpx.xsd" version="1.1" creator="VisuGPX - https://www.visugpx.com">
  <metadata>
    <name>Boucle Rouge-Gazon Gresson Rossberg</name>
    <desc><![CDATA[Belle boucle au départ du Rouge-Gazon 
30,6 km
1366 den  
]]></desc>
  </metadata>
  <trk>
    <name><![CDATA[Boucle Rouge-Gazon Gresson Rossberg_1]]></name>
    <trkseg>
      <trkpt lat="47.85514" lon="6.91845">
        <ele>1088</ele>
        <time>2015-11-11T08:18:56.768Z</time>
      </trkpt>
      <trkpt lat="47.85514" lon="6.91845">
        <ele>1088</ele>
        <time>2015-11-11T08:19:56.785Z</time>
      </trkpt>
      <trkpt lat="47.85511" lon="6.91847">
        <ele>1088</ele>
        <time>2015-11-11T08:20:57.783Z</time>
      </trkpt>
      <trkpt lat="47.85509" lon="6.91845">
        <ele>1088</ele>
        <time>2015-11-11T08:21:58.77Z</time>
      </trkpt>
      <trkpt lat="47.8551" lon="6.9185">
        <ele>1088</ele>
        <time>2015-11-11T08:22:58.775Z</time>
      </trkpt>
      <trkpt lat="47.8551" lon="6.9185">
        <ele>1088</ele>
        <time>2015-11-11T08:23:58.79Z</time>
      </trkpt>
      <trkpt lat="47.85511" lon="6.91846">
        <ele>1088</ele>
        <time>2015-11-11T08:24:59.786Z</time>
      </trkpt>
      <trkpt lat="47.85501" lon="6.91862">
        <ele>1087</ele>
        <time>2015-11-11T08:25:50.78Z</time>
      </trkpt>
      <trkpt lat="47.85509" lon="6.91846">
        <ele>1088</ele>
        <time>2015-11-11T08:26:34.773Z</time>
      </trkpt>
      <trkpt lat="47.85496" lon="6.91837">
        <ele>1092</ele>
        <time>2015-11-11T08:26:42.771Z</time>
      </trkpt>
      <trkpt lat="47.85467" lon="6.91803">
        <ele>1097</ele>
        <time>2015-11-11T08:27:11.765Z</time>
      </trkpt>
      <trkpt lat="47.85439" lon="6.91806">
        <ele>1101</ele>
        <time>2015-11-11T08:28:11.775Z</time>
      </trkpt>
      <trkpt lat="47.8541" lon="6.91828">
        <ele>1114</ele>
        <time>2015-11-11T08:29:12.77Z</time>
      </trkpt>
      <trkpt lat="47.85389" lon="6.91855">
        <ele>1125</ele>
        <time>2015-11-11T08:30:13.775Z</time>
      </trkpt>
      <trkpt lat="47.85362" lon="6.91876">
        <ele>1132</ele>
        <time>2015-11-11T08:31:14.769Z</time>
      </trkpt>
      <trkpt lat="47.85338" lon="6.91895">
        <ele>1138</ele>
        <time>2015-11-11T08:32:14.77Z</time>
      </trkpt>
      <trkpt lat="47.85308" lon="6.91901">
        <ele>1158</ele>
        <time>2015-11-11T08:33:14.776Z</time>
      </trkpt>
      <trkpt lat="47.85263" lon="6.91902">
        <ele>1169</ele>
        <time>2015-11-11T08:34:15.769Z</time>
      </trkpt>
      <trkpt lat="47.85216" lon="6.919">
        <ele>1184</ele>
        <time>2015-11-11T08:35:15.785Z</time>
      </trkpt>
      <trkpt lat="47.85198" lon="6.91912">
        <ele>1187</ele>
        <time>2015-11-11T08:35:32.771Z</time>
      </trkpt>
      <trkpt lat="47.8516" lon="6.91947">
        <ele>1202</ele>
        <time>2015-11-11T08:36:27.766Z</time>
      </trkpt>
      <trkpt lat="47.85132" lon="6.91967">
        <ele>1204</ele>
        <time>2015-11-11T08:37:02.771Z</time>
      </trkpt>
      <trkpt lat="47.85088" lon="6.91978">
        <ele>1208</ele>
        <time>2015-11-11T08:37:38.773Z</time>
      </trkpt>
      <trkpt lat="47.85074" lon="6.91985">
        <ele>1211</ele>
        <time>2015-11-11T08:37:46.773Z</time>
      </trkpt>
      <trkpt lat="47.85037" lon="6.91996">
        <ele>1211</ele>
        <time>2015-11-11T08:38:13.785Z</time>
      </trkpt>
      <trkpt lat="47.85015" lon="6.92009">
        <ele>1207</ele>
        <time>2015-11-11T08:39:14.775Z</time>
      </trkpt>
      <trkpt lat="47.85018" lon="6.9201">
        <ele>1207</ele>
        <time>2015-11-11T08:40:14.784Z</time>
      </trkpt>
      <trkpt lat="47.85016" lon="6.92007">
        <ele>1208</ele>
        <time>2015-11-11T08:41:15.77Z</time>
      </trkpt>
      <trkpt lat="47.85017" lon="6.92009">
        <ele>1207</ele>
        <time>2015-11-11T08:42:16.766Z</time>
      </trkpt>
      <trkpt lat="47.85013" lon="6.92009">
        <ele>1208</ele>
        <time>2015-11-11T08:43:17.776Z</time>
      </trkpt>
      <trkpt lat="47.85014" lon="6.91993">
        <ele>1211</ele>
        <time>2015-11-11T08:44:18.769Z</time>
      </trkpt>
      <trkpt lat="47.85001" lon="6.91962">
        <ele>1211</ele>
        <time>2015-11-11T08:44:51.766Z</time>
      </trkpt>
      <trkpt lat="47.84988" lon="6.91955">
        <ele>1206</ele>
        <time>2015-11-11T08:45:02.77Z</time>
      </trkpt>
      <trkpt lat="47.84976" lon="6.91946">
        <ele>1205</ele>
        <time>2015-11-11T08:45:13.769Z</time>
      </trkpt>
      <trkpt lat="47.84955" lon="6.91935">
        <ele>1204</ele>
        <time>2015-11-11T08:45:28.77Z</time>
      </trkpt>
      <trkpt lat="47.84949" lon="6.91917">
        <ele>1204</ele>
        <time>2015-11-11T08:45:36.773Z</time>
      </trkpt>
      <trkpt lat="47.84919" lon="6.91835">
        <ele>1197</ele>
        <time>2015-11-11T08:46:18.769Z</time>
      </trkpt>
      <trkpt lat="47.84905" lon="6.91826">
        <ele>1193</ele>
        <time>2015-11-11T08:46:28.769Z</time>
      </trkpt>
      <trkpt lat="47.84878" lon="6.91797">
        <ele>1189</ele>
        <time>2015-11-11T08:46:48.769Z</time>
      </trkpt>
      <trkpt lat="47.84855" lon="6.91779">
        <ele>1188</ele>
        <time>2015-11-11T08:47:08.768Z</time>
      </trkpt>
      <trkpt lat="47.8481" lon="6.91764">
        <ele>1186</ele>
        <time>2015-11-11T08:47:44.77Z</time>
      </trkpt>
      <trkpt lat="47.84775" lon="6.91733">
        <ele>1196</ele>
        <time>2015-11-11T08:48:16.765Z</time>
      </trkpt>
      <trkpt lat="47.84715" lon="6.91709">
        <ele>1201</ele>
        <time>2015-11-11T08:49:01.77Z</time>
      </trkpt>
      <trkpt lat="47.84698" lon="6.91703">
        <ele>1201</ele>
        <time>2015-11-11T08:49:13.77Z</time>
      </trkpt>
      <trkpt lat="47.84653" lon="6.91712">
        <ele>1194</ele>
        <time>2015-11-11T08:49:43.768Z</time>
      </trkpt>
      <trkpt lat="47.84607" lon="6.91706">
        <ele>1191</ele>
        <time>2015-11-11T08:50:15.766Z</time>
      </trkpt>
      <trkpt lat="47.84562" lon="6.91702">
        <ele>1180</ele>
        <time>2015-11-11T08:50:44.765Z</time>
      </trkpt>
      <trkpt lat="47.84511" lon="6.91688">
        <ele>1177</ele>
        <time>2015-11-11T08:51:18.768Z</time>
      </trkpt>
      <trkpt lat="47.84454" lon="6.91688">
        <ele>1161</ele>
        <time>2015-11-11T08:51:57.769Z</time>
      </trkpt>
      <trkpt lat="47.84374" lon="6.91674">
        <ele>1137</ele>
        <time>2015-11-11T08:52:58.766Z</time>
      </trkpt>
      <trkpt lat="47.84358" lon="6.9167">
        <ele>1133</ele>
        <time>2015-11-11T08:53:09.766Z</time>
      </trkpt>
      <trkpt lat="47.84343" lon="6.91667">
        <ele>1129</ele>
        <time>2015-11-11T08:53:22.768Z</time>
      </trkpt>
      <trkpt lat="47.84331" lon="6.91654">
        <ele>1125</ele>
        <time>2015-11-11T08:53:31.765Z</time>
      </trkpt>
      <trkpt lat="47.84299" lon="6.91598">
        <ele>1126</ele>
        <time>2015-11-11T08:54:06.766Z</time>
      </trkpt>
      <trkpt lat="47.84298" lon="6.91576">
        <ele>1133</ele>
        <time>2015-11-11T08:54:14.765Z</time>
      </trkpt>
      <trkpt lat="47.84291" lon="6.91556">
        <ele>1132</ele>
        <time>2015-11-11T08:54:26.765Z</time>
      </trkpt>
      <trkpt lat="47.84288" lon="6.91534">
        <ele>1132</ele>
        <time>2015-11-11T08:54:35.77Z</time>
      </trkpt>
      <trkpt lat="47.84278" lon="6.91513">
        <ele>1130</ele>
        <time>2015-11-11T08:54:46.765Z</time>
      </trkpt>
      <trkpt lat="47.8427" lon="6.91478">
        <ele>1132</ele>
        <time>2015-11-11T08:55:05.765Z</time>
      </trkpt>
      <trkpt lat="47.84264" lon="6.91454">
        <ele>1133</ele>
        <time>2015-11-11T08:55:15.765Z</time>
      </trkpt>
      <trkpt lat="47.84255" lon="6.91395">
        <ele>1132</ele>
        <time>2015-11-11T08:55:45.766Z</time>
      </trkpt>
      <trkpt lat="47.8425" lon="6.91356">
        <ele>1132</ele>
        <time>2015-11-11T08:56:06.765Z</time>
      </trkpt>
      <trkpt lat="47.84251" lon="6.91333">
        <ele>1123</ele>
        <time>2015-11-11T08:56:17.768Z</time>
      </trkpt>
      <trkpt lat="47.84261" lon="6.91257">
        <ele>1133</ele>
        <time>2015-11-11T08:56:58.769Z</time>
      </trkpt>
      <trkpt lat="47.84271" lon="6.9119">
        <ele>1139</ele>
        <time>2015-11-11T08:57:31.77Z</time>
      </trkpt>
      <trkpt lat="47.84276" lon="6.91121">
        <ele>1137</ele>
        <time>2015-11-11T08:58:04.771Z</time>
      </trkpt>
      <trkpt lat="47.84283" lon="6.91053">
        <ele>1130</ele>
        <time>2015-11-11T08:58:33.768Z</time>
      </trkpt>
      <trkpt lat="47.84289" lon="6.91032">
        <ele>1130</ele>
        <time>2015-11-11T08:58:40.771Z</time>
      </trkpt>
      <trkpt lat="47.84316" lon="6.90972">
        <ele>1127</ele>
        <time>2015-11-11T08:59:14.768Z</time>
      </trkpt>
      <trkpt lat="47.8435" lon="6.90921">
        <ele>1145</ele>
        <time>2015-11-11T08:59:48.766Z</time>
      </trkpt>
      <trkpt lat="47.84351" lon="6.90852">
        <ele>1145</ele>
        <time>2015-11-11T09:00:24.768Z</time>
      </trkpt>
      <trkpt lat="47.84332" lon="6.90791">
        <ele>1124</ele>
        <time>2015-11-11T09:01:01.771Z</time>
      </trkpt>
      <trkpt lat="47.84338" lon="6.90737">
        <ele>1150</ele>
        <time>2015-11-11T09:01:23.768Z</time>
      </trkpt>
      <trkpt lat="47.84313" lon="6.90695">
        <ele>1132</ele>
        <time>2015-11-11T09:01:58.765Z</time>
      </trkpt>
      <trkpt lat="47.84303" lon="6.90629">
        <ele>1142</ele>
        <time>2015-11-11T09:02:30.768Z</time>
      </trkpt>
      <trkpt lat="47.84287" lon="6.90565">
        <ele>1152</ele>
        <time>2015-11-11T09:03:14.765Z</time>
      </trkpt>
      <trkpt lat="47.84277" lon="6.90537">
        <ele>1153</ele>
        <time>2015-11-11T09:03:29.765Z</time>
      </trkpt>
      <trkpt lat="47.84263" lon="6.90505">
        <ele>1150</ele>
        <time>2015-11-11T09:03:46.765Z</time>
      </trkpt>
      <trkpt lat="47.84247" lon="6.90477">
        <ele>1143</ele>
        <time>2015-11-11T09:04:07.765Z</time>
      </trkpt>
      <trkpt lat="47.84219" lon="6.90424">
        <ele>1147</ele>
        <time>2015-11-11T09:04:44.766Z</time>
      </trkpt>
      <trkpt lat="47.84203" lon="6.90396">
        <ele>1157</ele>
        <time>2015-11-11T09:05:02.766Z</time>
      </trkpt>
      <trkpt lat="47.84146" lon="6.9035">
        <ele>1141</ele>
        <time>2015-11-11T09:05:47.765Z</time>
      </trkpt>
      <trkpt lat="47.84133" lon="6.90338">
        <ele>1139</ele>
        <time>2015-11-11T09:05:56.765Z</time>
      </trkpt>
      <trkpt lat="47.84121" lon="6.90323">
        <ele>1150</ele>
        <time>2015-11-11T09:06:07.765Z</time>
      </trkpt>
      <trkpt lat="47.84095" lon="6.903">
        <ele>1148</ele>
        <time>2015-11-11T09:06:28.768Z</time>
      </trkpt>
      <trkpt lat="47.84082" lon="6.90297">
        <ele>1128</ele>
        <time>2015-11-11T09:06:39.768Z</time>
      </trkpt>
      <trkpt lat="47.84069" lon="6.90286">
        <ele>1128</ele>
        <time>2015-11-11T09:06:46.769Z</time>
      </trkpt>
      <trkpt lat="47.8407" lon="6.90264">
        <ele>1133</ele>
        <time>2015-11-11T09:06:52.769Z</time>
      </trkpt>
      <trkpt lat="47.84049" lon="6.90246">
        <ele>1133</ele>
        <time>2015-11-11T09:07:52.769Z</time>
      </trkpt>
      <trkpt lat="47.84053" lon="6.90255">
        <ele>1129</ele>
        <time>2015-11-11T09:08:52.77Z</time>
      </trkpt>
      <trkpt lat="47.84057" lon="6.90229">
        <ele>1135</ele>
        <time>2015-11-11T09:09:31.77Z</time>
      </trkpt>
      <trkpt lat="47.84055" lon="6.9019">
        <ele>1135</ele>
        <time>2015-11-11T09:09:51.765Z</time>
      </trkpt>
      <trkpt lat="47.84048" lon="6.90154">
        <ele>1134</ele>
        <time>2015-11-11T09:10:17.77Z</time>
      </trkpt>
      <trkpt lat="47.84042" lon="6.9013">
        <ele>1132</ele>
        <time>2015-11-11T09:10:29.778Z</time>
      </trkpt>
      <trkpt lat="47.8404" lon="6.90109">
        <ele>1131</ele>
        <time>2015-11-11T09:10:36.768Z</time>
      </trkpt>
      <trkpt lat="47.84018" lon="6.90085">
        <ele>1125</ele>
        <time>2015-11-11T09:10:59.765Z</time>
      </trkpt>
      <trkpt lat="47.83993" lon="6.90029">
        <ele>1112</ele>
        <time>2015-11-11T09:11:31.769Z</time>
      </trkpt>
      <trkpt lat="47.83954" lon="6.9">
        <ele>1110</ele>
        <time>2015-11-11T09:12:04.768Z</time>
      </trkpt>
      <trkpt lat="47.83941" lon="6.89993">
        <ele>1108</ele>
        <time>2015-11-11T09:12:13.768Z</time>
      </trkpt>
      <trkpt lat="47.83926" lon="6.89977">
        <ele>1107</ele>
        <time>2015-11-11T09:12:29.768Z</time>
      </trkpt>
      <trkpt lat="47.8391" lon="6.89962">
        <ele>1103</ele>
        <time>2015-11-11T09:12:44.769Z</time>
      </trkpt>
      <trkpt lat="47.8388" lon="6.89946">
        <ele>1102</ele>
        <time>2015-11-11T09:13:03.769Z</time>
      </trkpt>
      <trkpt lat="47.83867" lon="6.8993">
        <ele>1102</ele>
        <time>2015-11-11T09:13:15.765Z</time>
      </trkpt>
      <trkpt lat="47.83852" lon="6.89923">
        <ele>1102</ele>
        <time>2015-11-11T09:13:27.765Z</time>
      </trkpt>
      <trkpt lat="47.83816" lon="6.89881">
        <ele>1110</ele>
        <time>2015-11-11T09:14:10.766Z</time>
      </trkpt>
      <trkpt lat="47.83771" lon="6.89871">
        <ele>1114</ele>
        <time>2015-11-11T09:14:51.765Z</time>
      </trkpt>
      <trkpt lat="47.83724" lon="6.89868">
        <ele>1119</ele>
        <time>2015-11-11T09:15:51.768Z</time>
      </trkpt>
      <trkpt lat="47.83649" lon="6.89859">
        <ele>1122</ele>
        <time>2015-11-11T09:16:32.765Z</time>
      </trkpt>
      <trkpt lat="47.8363" lon="6.89863">
        <ele>1120</ele>
        <time>2015-11-11T09:16:45.765Z</time>
      </trkpt>
      <trkpt lat="47.83616" lon="6.89858">
        <ele>1121</ele>
        <time>2015-11-11T09:16:58.765Z</time>
      </trkpt>
      <trkpt lat="47.83594" lon="6.89847">
        <ele>1126</ele>
        <time>2015-11-11T09:17:15.766Z</time>
      </trkpt>
      <trkpt lat="47.83564" lon="6.89841">
        <ele>1121</ele>
        <time>2015-11-11T09:17:34.765Z</time>
      </trkpt>
      <trkpt lat="47.83541" lon="6.89841">
        <ele>1117</ele>
        <time>2015-11-11T09:17:53.766Z</time>
      </trkpt>
      <trkpt lat="47.83527" lon="6.89835">
        <ele>1117</ele>
        <time>2015-11-11T09:18:02.77Z</time>
      </trkpt>
      <trkpt lat="47.83497" lon="6.89834">
        <ele>1118</ele>
        <time>2015-11-11T09:18:22.765Z</time>
      </trkpt>
      <trkpt lat="47.83482" lon="6.89827">
        <ele>1120</ele>
        <time>2015-11-11T09:18:35.765Z</time>
      </trkpt>
      <trkpt lat="47.834" lon="6.89778">
        <ele>1108</ele>
        <time>2015-11-11T09:19:35.765Z</time>
      </trkpt>
      <trkpt lat="47.83385" lon="6.8977">
        <ele>1107</ele>
        <time>2015-11-11T09:19:46.766Z</time>
      </trkpt>
      <trkpt lat="47.83308" lon="6.89739">
        <ele>1106</ele>
        <time>2015-11-11T09:20:36.77Z</time>
      </trkpt>
      <trkpt lat="47.83292" lon="6.89735">
        <ele>1105</ele>
        <time>2015-11-11T09:20:48.766Z</time>
      </trkpt>
      <trkpt lat="47.83282" lon="6.89732">
        <ele>1104</ele>
        <time>2015-11-11T09:21:48.77Z</time>
      </trkpt>
      <trkpt lat="47.83282" lon="6.89731">
        <ele>1104</ele>
        <time>2015-11-11T09:22:48.785Z</time>
      </trkpt>
      <trkpt lat="47.83224" lon="6.89775">
        <ele>1089</ele>
        <time>2015-11-11T09:23:43.769Z</time>
      </trkpt>
      <trkpt lat="47.83177" lon="6.89766">
        <ele>1086</ele>
        <time>2015-11-11T09:24:14.765Z</time>
      </trkpt>
      <trkpt lat="47.8315" lon="6.8976">
        <ele>1083</ele>
        <time>2015-11-11T09:24:34.769Z</time>
      </trkpt>
      <trkpt lat="47.83102" lon="6.89771">
        <ele>1079</ele>
        <time>2015-11-11T09:25:14.769Z</time>
      </trkpt>
      <trkpt lat="47.83042" lon="6.89781">
        <ele>1076</ele>
        <time>2015-11-11T09:25:50.765Z</time>
      </trkpt>
      <trkpt lat="47.8298" lon="6.89758">
        <ele>1075</ele>
        <time>2015-11-11T09:26:32.768Z</time>
      </trkpt>
      <trkpt lat="47.82957" lon="6.89752">
        <ele>1075</ele>
        <time>2015-11-11T09:26:48.766Z</time>
      </trkpt>
      <trkpt lat="47.82925" lon="6.89749">
        <ele>1077</ele>
        <time>2015-11-11T09:27:08.768Z</time>
      </trkpt>
      <trkpt lat="47.82911" lon="6.89746">
        <ele>1077</ele>
        <time>2015-11-11T09:27:17.768Z</time>
      </trkpt>
      <trkpt lat="47.82892" lon="6.89733">
        <ele>1078</ele>
        <time>2015-11-11T09:27:32.766Z</time>
      </trkpt>
      <trkpt lat="47.82878" lon="6.89736">
        <ele>1078</ele>
        <time>2015-11-11T09:27:40.766Z</time>
      </trkpt>
      <trkpt lat="47.82795" lon="6.89714">
        <ele>1076</ele>
        <time>2015-11-11T09:28:36.768Z</time>
      </trkpt>
      <trkpt lat="47.82778" lon="6.89703">
        <ele>1076</ele>
        <time>2015-11-11T09:28:52.768Z</time>
      </trkpt>
      <trkpt lat="47.82756" lon="6.89686">
        <ele>1076</ele>
        <time>2015-11-11T09:29:12.765Z</time>
      </trkpt>
      <trkpt lat="47.82748" lon="6.89655">
        <ele>1074</ele>
        <time>2015-11-11T09:29:23.766Z</time>
      </trkpt>
      <trkpt lat="47.82743" lon="6.89635">
        <ele>1072</ele>
        <time>2015-11-11T09:29:32.765Z</time>
      </trkpt>
      <trkpt lat="47.82732" lon="6.89625">
        <ele>1071</ele>
        <time>2015-11-11T09:29:38.766Z</time>
      </trkpt>
      <trkpt lat="47.8271" lon="6.89585">
        <ele>1069</ele>
        <time>2015-11-11T09:30:02.77Z</time>
      </trkpt>
      <trkpt lat="47.82686" lon="6.89565">
        <ele>1062</ele>
        <time>2015-11-11T09:30:24.765Z</time>
      </trkpt>
      <trkpt lat="47.82672" lon="6.89592">
        <ele>1063</ele>
        <time>2015-11-11T09:30:42.764Z</time>
      </trkpt>
      <trkpt lat="47.82661" lon="6.89651">
        <ele>1055</ele>
        <time>2015-11-11T09:31:09.764Z</time>
      </trkpt>
      <trkpt lat="47.82665" lon="6.89673">
        <ele>1056</ele>
        <time>2015-11-11T09:31:20.768Z</time>
      </trkpt>
      <trkpt lat="47.82652" lon="6.89734">
        <ele>1045</ele>
        <time>2015-11-11T09:31:57.765Z</time>
      </trkpt>
      <trkpt lat="47.8263" lon="6.89734">
        <ele>1042</ele>
        <time>2015-11-11T09:32:11.766Z</time>
      </trkpt>
      <trkpt lat="47.82596" lon="6.8971">
        <ele>1038</ele>
        <time>2015-11-11T09:32:40.766Z</time>
      </trkpt>
      <trkpt lat="47.82583" lon="6.89705">
        <ele>1024</ele>
        <time>2015-11-11T09:32:49.765Z</time>
      </trkpt>
      <trkpt lat="47.82539" lon="6.89674">
        <ele>1020</ele>
        <time>2015-11-11T09:33:20.768Z</time>
      </trkpt>
      <trkpt lat="47.82501" lon="6.89728">
        <ele>1014</ele>
        <time>2015-11-11T09:34:06.768Z</time>
      </trkpt>
      <trkpt lat="47.82466" lon="6.89751">
        <ele>997</ele>
        <time>2015-11-11T09:35:06.771Z</time>
      </trkpt>
      <trkpt lat="47.82467" lon="6.89762">
        <ele>997</ele>
        <time>2015-11-11T09:36:06.771Z</time>
      </trkpt>
      <trkpt lat="47.82466" lon="6.89762">
        <ele>997</ele>
        <time>2015-11-11T09:37:07.764Z</time>
      </trkpt>
      <trkpt lat="47.82467" lon="6.89762">
        <ele>997</ele>
        <time>2015-11-11T09:38:07.768Z</time>
      </trkpt>
      <trkpt lat="47.82467" lon="6.89762">
        <ele>997</ele>
        <time>2015-11-11T09:39:07.768Z</time>
      </trkpt>
      <trkpt lat="47.82467" lon="6.89762">
        <ele>997</ele>
        <time>2015-11-11T09:40:07.768Z</time>
      </trkpt>
      <trkpt lat="47.82467" lon="6.89762">
        <ele>997</ele>
        <time>2015-11-11T09:41:07.769Z</time>
      </trkpt>
      <trkpt lat="47.82466" lon="6.89762">
        <ele>997</ele>
        <time>2015-11-11T09:42:07.774Z</time>
      </trkpt>
      <trkpt lat="47.82466" lon="6.89763">
        <ele>997</ele>
        <time>2015-11-11T09:43:08.773Z</time>
      </trkpt>
      <trkpt lat="47.82466" lon="6.89763">
        <ele>997</ele>
        <time>2015-11-11T09:44:09.771Z</time>
      </trkpt>
      <trkpt lat="47.82466" lon="6.89763">
        <ele>997</ele>
        <time>2015-11-11T09:45:09.773Z</time>
      </trkpt>
      <trkpt lat="47.82466" lon="6.89763">
        <ele>997</ele>
        <time>2015-11-11T09:46:09.774Z</time>
      </trkpt>
      <trkpt lat="47.82466" lon="6.89763">
        <ele>997</ele>
        <time>2015-11-11T09:47:10.773Z</time>
      </trkpt>
      <trkpt lat="47.82463" lon="6.89769">
        <ele>996</ele>
        <time>2015-11-11T09:48:10.775Z</time>
      </trkpt>
      <trkpt lat="47.82468" lon="6.89769">
        <ele>997</ele>
        <time>2015-11-11T09:49:10.776Z</time>
      </trkpt>
      <trkpt lat="47.82475" lon="6.89769">
        <ele>998</ele>
        <time>2015-11-11T09:50:11.775Z</time>
      </trkpt>
      <trkpt lat="47.82469" lon="6.89768">
        <ele>997</ele>
        <time>2015-11-11T09:51:11.779Z</time>
      </trkpt>
      <trkpt lat="47.82455" lon="6.8977">
        <ele>995</ele>
        <time>2015-11-11T09:52:08.774Z</time>
      </trkpt>
      <trkpt lat="47.82402" lon="6.89782">
        <ele>981</ele>
        <time>2015-11-11T09:52:46.774Z</time>
      </trkpt>
      <trkpt lat="47.82392" lon="6.89798">
        <ele>979</ele>
        <time>2015-11-11T09:52:57.774Z</time>
      </trkpt>
      <trkpt lat="47.82377" lon="6.89806">
        <ele>978</ele>
        <time>2015-11-11T09:53:09.775Z</time>
      </trkpt>
      <trkpt lat="47.82326" lon="6.8985">
        <ele>969</ele>
        <time>2015-11-11T09:53:49.775Z</time>
      </trkpt>
      <trkpt lat="47.82314" lon="6.89861">
        <ele>968</ele>
        <time>2015-11-11T09:54:00.771Z</time>
      </trkpt>
      <trkpt lat="47.82314" lon="6.89882">
        <ele>966</ele>
        <time>2015-11-11T09:54:10.774Z</time>
      </trkpt>
      <trkpt lat="47.82315" lon="6.89912">
        <ele>965</ele>
        <time>2015-11-11T09:54:23.775Z</time>
      </trkpt>
      <trkpt lat="47.82331" lon="6.89963">
        <ele>958</ele>
        <time>2015-11-11T09:54:48.775Z</time>
      </trkpt>
      <trkpt lat="47.82363" lon="6.90048">
        <ele>949</ele>
        <time>2015-11-11T09:55:38.773Z</time>
      </trkpt>
      <trkpt lat="47.82374" lon="6.90063">
        <ele>947</ele>
        <time>2015-11-11T09:56:18.778Z</time>
      </trkpt>
      <trkpt lat="47.82382" lon="6.90079">
        <ele>946</ele>
        <time>2015-11-11T09:56:29.779Z</time>
      </trkpt>
      <trkpt lat="47.82393" lon="6.90082">
        <ele>946</ele>
        <time>2015-11-11T09:57:30.774Z</time>
      </trkpt>
      <trkpt lat="47.82409" lon="6.9008">
        <ele>943</ele>
        <time>2015-11-11T09:57:42.775Z</time>
      </trkpt>
      <trkpt lat="47.82436" lon="6.90079">
        <ele>947</ele>
        <time>2015-11-11T09:58:03.769Z</time>
      </trkpt>
      <trkpt lat="47.82481" lon="6.90096">
        <ele>939</ele>
        <time>2015-11-11T09:58:43.78Z</time>
      </trkpt>
      <trkpt lat="47.82491" lon="6.90112">
        <ele>937</ele>
        <time>2015-11-11T09:59:01.776Z</time>
      </trkpt>
      <trkpt lat="47.82524" lon="6.9016">
        <ele>934</ele>
        <time>2015-11-11T09:59:38.775Z</time>
      </trkpt>
      <trkpt lat="47.82556" lon="6.90177">
        <ele>923</ele>
        <time>2015-11-11T10:00:07.769Z</time>
      </trkpt>
      <trkpt lat="47.82561" lon="6.90196">
        <ele>921</ele>
        <time>2015-11-11T10:00:16.768Z</time>
      </trkpt>
      <trkpt lat="47.82549" lon="6.90206">
        <ele>920</ele>
        <time>2015-11-11T10:00:23.77Z</time>
      </trkpt>
      <trkpt lat="47.82503" lon="6.90226">
        <ele>916</ele>
        <time>2015-11-11T10:00:56.771Z</time>
      </trkpt>
      <trkpt lat="47.82488" lon="6.90231">
        <ele>913</ele>
        <time>2015-11-11T10:01:03.771Z</time>
      </trkpt>
      <trkpt lat="47.82472" lon="6.90238">
        <ele>913</ele>
        <time>2015-11-11T10:01:13.779Z</time>
      </trkpt>
      <trkpt lat="47.82451" lon="6.90236">
        <ele>913</ele>
        <time>2015-11-11T10:01:25.776Z</time>
      </trkpt>
      <trkpt lat="47.82441" lon="6.90252">
        <ele>903</ele>
        <time>2015-11-11T10:01:34.774Z</time>
      </trkpt>
      <trkpt lat="47.8243" lon="6.90292">
        <ele>901</ele>
        <time>2015-11-11T10:01:53.769Z</time>
      </trkpt>
      <trkpt lat="47.82419" lon="6.90306">
        <ele>899</ele>
        <time>2015-11-11T10:02:01.771Z</time>
      </trkpt>
      <trkpt lat="47.82399" lon="6.90359">
        <ele>894</ele>
        <time>2015-11-11T10:02:27.77Z</time>
      </trkpt>
      <trkpt lat="47.82388" lon="6.9038">
        <ele>893</ele>
        <time>2015-11-11T10:02:38.77Z</time>
      </trkpt>
      <trkpt lat="47.82357" lon="6.90426">
        <ele>885</ele>
        <time>2015-11-11T10:03:04.77Z</time>
      </trkpt>
      <trkpt lat="47.82314" lon="6.90477">
        <ele>888</ele>
        <time>2015-11-11T10:04:05.77Z</time>
      </trkpt>
      <trkpt lat="47.82307" lon="6.90495">
        <ele>887</ele>
        <time>2015-11-11T10:04:14.773Z</time>
      </trkpt>
      <trkpt lat="47.82296" lon="6.90538">
        <ele>874</ele>
        <time>2015-11-11T10:04:37.773Z</time>
      </trkpt>
      <trkpt lat="47.82282" lon="6.90612">
        <ele>862</ele>
        <time>2015-11-11T10:05:22.774Z</time>
      </trkpt>
      <trkpt lat="47.82283" lon="6.9074">
        <ele>851</ele>
        <time>2015-11-11T10:06:23.766Z</time>
      </trkpt>
      <trkpt lat="47.8229" lon="6.90759">
        <ele>845</ele>
        <time>2015-11-11T10:06:41.77Z</time>
      </trkpt>
      <trkpt lat="47.82292" lon="6.90779">
        <ele>843</ele>
        <time>2015-11-11T10:06:49.77Z</time>
      </trkpt>
      <trkpt lat="47.82301" lon="6.90795">
        <ele>841</ele>
        <time>2015-11-11T10:06:59.77Z</time>
      </trkpt>
      <trkpt lat="47.82299" lon="6.90817">
        <ele>840</ele>
        <time>2015-11-11T10:07:09.774Z</time>
      </trkpt>
      <trkpt lat="47.82304" lon="6.9084">
        <ele>834</ele>
        <time>2015-11-11T10:07:18.768Z</time>
      </trkpt>
      <trkpt lat="47.8231" lon="6.90917">
        <ele>826</ele>
        <time>2015-11-11T10:07:56.77Z</time>
      </trkpt>
      <trkpt lat="47.82308" lon="6.91007">
        <ele>820</ele>
        <time>2015-11-11T10:08:36.764Z</time>
      </trkpt>
      <trkpt lat="47.82318" lon="6.91022">
        <ele>819</ele>
        <time>2015-11-11T10:08:44.76Z</time>
      </trkpt>
      <trkpt lat="47.82319" lon="6.91043">
        <ele>818</ele>
        <time>2015-11-11T10:08:53.763Z</time>
      </trkpt>
      <trkpt lat="47.82316" lon="6.91065">
        <ele>816</ele>
        <time>2015-11-11T10:09:03.76Z</time>
      </trkpt>
      <trkpt lat="47.82319" lon="6.91088">
        <ele>810</ele>
        <time>2015-11-11T10:09:11.765Z</time>
      </trkpt>
      <trkpt lat="47.82325" lon="6.91108">
        <ele>811</ele>
        <time>2015-11-11T10:09:22.763Z</time>
      </trkpt>
      <trkpt lat="47.82334" lon="6.9116">
        <ele>802</ele>
        <time>2015-11-11T10:09:46.77Z</time>
      </trkpt>
      <trkpt lat="47.82341" lon="6.91183">
        <ele>802</ele>
        <time>2015-11-11T10:10:02.773Z</time>
      </trkpt>
      <trkpt lat="47.82342" lon="6.91204">
        <ele>802</ele>
        <time>2015-11-11T10:10:11.769Z</time>
      </trkpt>
      <trkpt lat="47.82351" lon="6.91225">
        <ele>802</ele>
        <time>2015-11-11T10:10:23.77Z</time>
      </trkpt>
      <trkpt lat="47.82363" lon="6.91277">
        <ele>801</ele>
        <time>2015-11-11T10:10:49.771Z</time>
      </trkpt>
      <trkpt lat="47.82364" lon="6.91311">
        <ele>800</ele>
        <time>2015-11-11T10:11:49.771Z</time>
      </trkpt>
      <trkpt lat="47.82361" lon="6.91336">
        <ele>795</ele>
        <time>2015-11-11T10:12:25.769Z</time>
      </trkpt>
      <trkpt lat="47.82321" lon="6.91421">
        <ele>792</ele>
        <time>2015-11-11T10:13:12.766Z</time>
      </trkpt>
      <trkpt lat="47.82314" lon="6.91444">
        <ele>792</ele>
        <time>2015-11-11T10:13:22.761Z</time>
      </trkpt>
      <trkpt lat="47.82291" lon="6.91499">
        <ele>792</ele>
        <time>2015-11-11T10:13:54.765Z</time>
      </trkpt>
      <trkpt lat="47.82285" lon="6.91538">
        <ele>788</ele>
        <time>2015-11-11T10:14:12.765Z</time>
      </trkpt>
      <trkpt lat="47.8227" lon="6.91606">
        <ele>788</ele>
        <time>2015-11-11T10:14:45.766Z</time>
      </trkpt>
      <trkpt lat="47.82268" lon="6.91651">
        <ele>789</ele>
        <time>2015-11-11T10:15:11.766Z</time>
      </trkpt>
      <trkpt lat="47.82268" lon="6.91679">
        <ele>786</ele>
        <time>2015-11-11T10:15:23.773Z</time>
      </trkpt>
      <trkpt lat="47.82261" lon="6.91747">
        <ele>783</ele>
        <time>2015-11-11T10:16:03.773Z</time>
      </trkpt>
      <trkpt lat="47.8223" lon="6.91796">
        <ele>778</ele>
        <time>2015-11-11T10:16:34.775Z</time>
      </trkpt>
      <trkpt lat="47.82215" lon="6.91815">
        <ele>776</ele>
        <time>2015-11-11T10:16:45.77Z</time>
      </trkpt>
      <trkpt lat="47.82173" lon="6.91847">
        <ele>764</ele>
        <time>2015-11-11T10:17:16.765Z</time>
      </trkpt>
      <trkpt lat="47.82131" lon="6.91875">
        <ele>763</ele>
        <time>2015-11-11T10:17:47.78Z</time>
      </trkpt>
      <trkpt lat="47.82113" lon="6.91891">
        <ele>762</ele>
        <time>2015-11-11T10:18:01.761Z</time>
      </trkpt>
      <trkpt lat="47.82096" lon="6.91927">
        <ele>749</ele>
        <time>2015-11-11T10:18:18.773Z</time>
      </trkpt>
      <trkpt lat="47.82067" lon="6.91997">
        <ele>748</ele>
        <time>2015-11-11T10:18:59.771Z</time>
      </trkpt>
      <trkpt lat="47.82041" lon="6.9205">
        <ele>737</ele>
        <time>2015-11-11T10:19:30.765Z</time>
      </trkpt>
      <trkpt lat="47.82034" lon="6.92074">
        <ele>736</ele>
        <time>2015-11-11T10:19:42.768Z</time>
      </trkpt>
      <trkpt lat="47.82009" lon="6.92132">
        <ele>724</ele>
        <time>2015-11-11T10:20:17.769Z</time>
      </trkpt>
      <trkpt lat="47.81999" lon="6.9218">
        <ele>725</ele>
        <time>2015-11-11T10:20:37.77Z</time>
      </trkpt>
      <trkpt lat="47.81997" lon="6.92216">
        <ele>721</ele>
        <time>2015-11-11T10:20:55.765Z</time>
      </trkpt>
      <trkpt lat="47.81994" lon="6.92284">
        <ele>708</ele>
        <time>2015-11-11T10:21:38.771Z</time>
      </trkpt>
      <trkpt lat="47.81989" lon="6.92313">
        <ele>704</ele>
        <time>2015-11-11T10:21:53.766Z</time>
      </trkpt>
      <trkpt lat="47.81997" lon="6.92385">
        <ele>694</ele>
        <time>2015-11-11T10:22:41.77Z</time>
      </trkpt>
      <trkpt lat="47.81995" lon="6.92452">
        <ele>685</ele>
        <time>2015-11-11T10:23:17.77Z</time>
      </trkpt>
      <trkpt lat="47.82032" lon="6.92491">
        <ele>666</ele>
        <time>2015-11-11T10:24:09.765Z</time>
      </trkpt>
      <trkpt lat="47.82051" lon="6.92498">
        <ele>661</ele>
        <time>2015-11-11T10:25:09.769Z</time>
      </trkpt>
      <trkpt lat="47.82065" lon="6.92566">
        <ele>646</ele>
        <time>2015-11-11T10:25:55.775Z</time>
      </trkpt>
      <trkpt lat="47.82056" lon="6.92637">
        <ele>639</ele>
        <time>2015-11-11T10:26:30.77Z</time>
      </trkpt>
      <trkpt lat="47.82075" lon="6.92702">
        <ele>629</ele>
        <time>2015-11-11T10:27:14.77Z</time>
      </trkpt>
      <trkpt lat="47.8207" lon="6.92771">
        <ele>620</ele>
        <time>2015-11-11T10:27:46.77Z</time>
      </trkpt>
      <trkpt lat="47.82058" lon="6.92836">
        <ele>612</ele>
        <time>2015-11-11T10:28:21.769Z</time>
      </trkpt>
      <trkpt lat="47.8205" lon="6.92903">
        <ele>608</ele>
        <time>2015-11-11T10:28:52.769Z</time>
      </trkpt>
      <trkpt lat="47.82059" lon="6.92971">
        <ele>594</ele>
        <time>2015-11-11T10:29:35.769Z</time>
      </trkpt>
      <trkpt lat="47.82099" lon="6.93001">
        <ele>579</ele>
        <time>2015-11-11T10:30:13.774Z</time>
      </trkpt>
      <trkpt lat="47.82112" lon="6.93015">
        <ele>575</ele>
        <time>2015-11-11T10:30:22.765Z</time>
      </trkpt>
      <trkpt lat="47.82133" lon="6.93025">
        <ele>572</ele>
        <time>2015-11-11T10:30:40.769Z</time>
      </trkpt>
      <trkpt lat="47.82149" lon="6.9303">
        <ele>571</ele>
        <time>2015-11-11T10:30:54.766Z</time>
      </trkpt>
      <trkpt lat="47.82167" lon="6.93036">
        <ele>570</ele>
        <time>2015-11-11T10:31:08.77Z</time>
      </trkpt>
      <trkpt lat="47.82178" lon="6.93014">
        <ele>569</ele>
        <time>2015-11-11T10:32:08.77Z</time>
      </trkpt>
      <trkpt lat="47.82181" lon="6.93023">
        <ele>570</ele>
        <time>2015-11-11T10:33:08.771Z</time>
      </trkpt>
      <trkpt lat="47.82185" lon="6.9304">
        <ele>570</ele>
        <time>2015-11-11T10:34:09.775Z</time>
      </trkpt>
      <trkpt lat="47.82188" lon="6.9306">
        <ele>570</ele>
        <time>2015-11-11T10:35:07.778Z</time>
      </trkpt>
      <trkpt lat="47.82196" lon="6.93092">
        <ele>569</ele>
        <time>2015-11-11T10:35:24.771Z</time>
      </trkpt>
      <trkpt lat="47.82198" lon="6.93113">
        <ele>569</ele>
        <time>2015-11-11T10:35:35.77Z</time>
      </trkpt>
      <trkpt lat="47.82195" lon="6.93151">
        <ele>568</ele>
        <time>2015-11-11T10:35:54.77Z</time>
      </trkpt>
      <trkpt lat="47.82174" lon="6.93239">
        <ele>562</ele>
        <time>2015-11-11T10:36:55.765Z</time>
      </trkpt>
      <trkpt lat="47.82165" lon="6.93257">
        <ele>559</ele>
        <time>2015-11-11T10:37:03.766Z</time>
      </trkpt>
      <trkpt lat="47.82109" lon="6.93363">
        <ele>565</ele>
        <time>2015-11-11T10:38:03.766Z</time>
      </trkpt>
      <trkpt lat="47.82083" lon="6.9341">
        <ele>558</ele>
        <time>2015-11-11T10:38:34.769Z</time>
      </trkpt>
      <trkpt lat="47.82084" lon="6.93422">
        <ele>563</ele>
        <time>2015-11-11T10:39:35.766Z</time>
      </trkpt>
      <trkpt lat="47.82095" lon="6.93477">
        <ele>576</ele>
        <time>2015-11-11T10:40:35.766Z</time>
      </trkpt>
      <trkpt lat="47.8209" lon="6.93517">
        <ele>583</ele>
        <time>2015-11-11T10:41:06.77Z</time>
      </trkpt>
      <trkpt lat="47.82085" lon="6.93538">
        <ele>589</ele>
        <time>2015-11-11T10:41:18.766Z</time>
      </trkpt>
      <trkpt lat="47.82078" lon="6.93565">
        <ele>576</ele>
        <time>2015-11-11T10:41:35.77Z</time>
      </trkpt>
      <trkpt lat="47.82071" lon="6.93612">
        <ele>577</ele>
        <time>2015-11-11T10:41:59.77Z</time>
      </trkpt>
      <trkpt lat="47.82064" lon="6.93639">
        <ele>576</ele>
        <time>2015-11-11T10:42:11.771Z</time>
      </trkpt>
      <trkpt lat="47.8206" lon="6.93724">
        <ele>578</ele>
        <time>2015-11-11T10:42:54.768Z</time>
      </trkpt>
      <trkpt lat="47.82048" lon="6.93765">
        <ele>577</ele>
        <time>2015-11-11T10:43:18.77Z</time>
      </trkpt>
      <trkpt lat="47.82028" lon="6.93855">
        <ele>575</ele>
        <time>2015-11-11T10:43:59.771Z</time>
      </trkpt>
      <trkpt lat="47.82024" lon="6.93901">
        <ele>573</ele>
        <time>2015-11-11T10:44:20.77Z</time>
      </trkpt>
      <trkpt lat="47.82021" lon="6.93937">
        <ele>572</ele>
        <time>2015-11-11T10:44:35.77Z</time>
      </trkpt>
      <trkpt lat="47.82017" lon="6.93978">
        <ele>572</ele>
        <time>2015-11-11T10:44:52.77Z</time>
      </trkpt>
      <trkpt lat="47.82021" lon="6.93998">
        <ele>571</ele>
        <time>2015-11-11T10:45:01.773Z</time>
      </trkpt>
      <trkpt lat="47.82034" lon="6.94027">
        <ele>573</ele>
        <time>2015-11-11T10:45:19.776Z</time>
      </trkpt>
      <trkpt lat="47.82033" lon="6.94048">
        <ele>573</ele>
        <time>2015-11-11T10:45:26.77Z</time>
      </trkpt>
      <trkpt lat="47.82036" lon="6.94128">
        <ele>569</ele>
        <time>2015-11-11T10:45:59.775Z</time>
      </trkpt>
      <trkpt lat="47.82053" lon="6.94214">
        <ele>567</ele>
        <time>2015-11-11T10:46:39.773Z</time>
      </trkpt>
      <trkpt lat="47.8207" lon="6.94247">
        <ele>569</ele>
        <time>2015-11-11T10:47:01.771Z</time>
      </trkpt>
      <trkpt lat="47.8213" lon="6.94346">
        <ele>567</ele>
        <time>2015-11-11T10:48:02.768Z</time>
      </trkpt>
      <trkpt lat="47.82142" lon="6.94356">
        <ele>568</ele>
        <time>2015-11-11T10:48:09.766Z</time>
      </trkpt>
      <trkpt lat="47.82154" lon="6.94378">
        <ele>566</ele>
        <time>2015-11-11T10:48:23.768Z</time>
      </trkpt>
      <trkpt lat="47.82172" lon="6.94395">
        <ele>571</ele>
        <time>2015-11-11T10:48:36.768Z</time>
      </trkpt>
      <trkpt lat="47.82198" lon="6.9441">
        <ele>573</ele>
        <time>2015-11-11T10:48:51.77Z</time>
      </trkpt>
      <trkpt lat="47.82211" lon="6.94419">
        <ele>568</ele>
        <time>2015-11-11T10:49:01.769Z</time>
      </trkpt>
      <trkpt lat="47.82227" lon="6.94443">
        <ele>569</ele>
        <time>2015-11-11T10:49:14.768Z</time>
      </trkpt>
      <trkpt lat="47.82264" lon="6.9453">
        <ele>578</ele>
        <time>2015-11-11T10:50:05.771Z</time>
      </trkpt>
      <trkpt lat="47.82273" lon="6.94561">
        <ele>578</ele>
        <time>2015-11-11T10:50:22.77Z</time>
      </trkpt>
      <trkpt lat="47.82284" lon="6.94576">
        <ele>579</ele>
        <time>2015-11-11T10:50:35.77Z</time>
      </trkpt>
      <trkpt lat="47.8229" lon="6.946">
        <ele>577</ele>
        <time>2015-11-11T10:50:44.77Z</time>
      </trkpt>
      <trkpt lat="47.82309" lon="6.94665">
        <ele>579</ele>
        <time>2015-11-11T10:51:17.769Z</time>
      </trkpt>
      <trkpt lat="47.8233" lon="6.94697">
        <ele>574</ele>
        <time>2015-11-11T10:51:35.77Z</time>
      </trkpt>
      <trkpt lat="47.82362" lon="6.94744">
        <ele>586</ele>
        <time>2015-11-11T10:52:10.77Z</time>
      </trkpt>
      <trkpt lat="47.82377" lon="6.94757">
        <ele>579</ele>
        <time>2015-11-11T10:52:22.77Z</time>
      </trkpt>
      <trkpt lat="47.82414" lon="6.94797">
        <ele>579</ele>
        <time>2015-11-11T10:52:49.769Z</time>
      </trkpt>
      <trkpt lat="47.82424" lon="6.94814">
        <ele>588</ele>
        <time>2015-11-11T10:52:59.769Z</time>
      </trkpt>
      <trkpt lat="47.82441" lon="6.94846">
        <ele>581</ele>
        <time>2015-11-11T10:53:13.769Z</time>
      </trkpt>
      <trkpt lat="47.8245" lon="6.94864">
        <ele>581</ele>
        <time>2015-11-11T10:53:22.77Z</time>
      </trkpt>
      <trkpt lat="47.8246" lon="6.94879">
        <ele>581</ele>
        <time>2015-11-11T10:54:22.771Z</time>
      </trkpt>
      <trkpt lat="47.82457" lon="6.94878">
        <ele>581</ele>
        <time>2015-11-11T10:55:22.775Z</time>
      </trkpt>
      <trkpt lat="47.82453" lon="6.9488">
        <ele>580</ele>
        <time>2015-11-11T10:56:23.769Z</time>
      </trkpt>
      <trkpt lat="47.82478" lon="6.94903">
        <ele>581</ele>
        <time>2015-11-11T10:57:20.774Z</time>
      </trkpt>
      <trkpt lat="47.82491" lon="6.94912">
        <ele>581</ele>
        <time>2015-11-11T10:57:31.771Z</time>
      </trkpt>
      <trkpt lat="47.82523" lon="6.9492">
        <ele>581</ele>
        <time>2015-11-11T10:57:56.774Z</time>
      </trkpt>
      <trkpt lat="47.82536" lon="6.94928">
        <ele>582</ele>
        <time>2015-11-11T10:58:08.77Z</time>
      </trkpt>
      <trkpt lat="47.82566" lon="6.94956">
        <ele>582</ele>
        <time>2015-11-11T10:58:36.77Z</time>
      </trkpt>
      <trkpt lat="47.82599" lon="6.94981">
        <ele>589</ele>
        <time>2015-11-11T10:59:01.769Z</time>
      </trkpt>
      <trkpt lat="47.82609" lon="6.94996">
        <ele>589</ele>
        <time>2015-11-11T10:59:12.766Z</time>
      </trkpt>
      <trkpt lat="47.82665" lon="6.95045">
        <ele>581</ele>
        <time>2015-11-11T10:59:50.768Z</time>
      </trkpt>
      <trkpt lat="47.82688" lon="6.95058">
        <ele>587</ele>
        <time>2015-11-11T11:00:08.773Z</time>
      </trkpt>
      <trkpt lat="47.82699" lon="6.95069">
        <ele>587</ele>
        <time>2015-11-11T11:00:16.768Z</time>
      </trkpt>
      <trkpt lat="47.8275" lon="6.95096">
        <ele>587</ele>
        <time>2015-11-11T11:00:50.769Z</time>
      </trkpt>
      <trkpt lat="47.82779" lon="6.95121">
        <ele>585</ele>
        <time>2015-11-11T11:01:15.768Z</time>
      </trkpt>
      <trkpt lat="47.82794" lon="6.95153">
        <ele>583</ele>
        <time>2015-11-11T11:01:33.766Z</time>
      </trkpt>
      <trkpt lat="47.82806" lon="6.9517">
        <ele>580</ele>
        <time>2015-11-11T11:01:46.771Z</time>
      </trkpt>
      <trkpt lat="47.8282" lon="6.95185">
        <ele>581</ele>
        <time>2015-11-11T11:01:57.765Z</time>
      </trkpt>
      <trkpt lat="47.82831" lon="6.95193">
        <ele>581</ele>
        <time>2015-11-11T11:02:57.771Z</time>
      </trkpt>
      <trkpt lat="47.82882" lon="6.95232">
        <ele>583</ele>
        <time>2015-11-11T11:03:57.771Z</time>
      </trkpt>
      <trkpt lat="47.82899" lon="6.95249">
        <ele>583</ele>
        <time>2015-11-11T11:04:12.766Z</time>
      </trkpt>
      <trkpt lat="47.82923" lon="6.95275">
        <ele>583</ele>
        <time>2015-11-11T11:04:33.775Z</time>
      </trkpt>
      <trkpt lat="47.8292" lon="6.95295">
        <ele>582</ele>
        <time>2015-11-11T11:04:43.774Z</time>
      </trkpt>
      <trkpt lat="47.82924" lon="6.95314">
        <ele>581</ele>
        <time>2015-11-11T11:04:57.768Z</time>
      </trkpt>
      <trkpt lat="47.82935" lon="6.95327">
        <ele>581</ele>
        <time>2015-11-11T11:05:08.768Z</time>
      </trkpt>
      <trkpt lat="47.82953" lon="6.95344">
        <ele>587</ele>
        <time>2015-11-11T11:05:23.778Z</time>
      </trkpt>
      <trkpt lat="47.82966" lon="6.95357">
        <ele>588</ele>
        <time>2015-11-11T11:05:35.766Z</time>
      </trkpt>
      <trkpt lat="47.82981" lon="6.95364">
        <ele>589</ele>
        <time>2015-11-11T11:05:57.77Z</time>
      </trkpt>
      <trkpt lat="47.82991" lon="6.95351">
        <ele>587</ele>
        <time>2015-11-11T11:06:05.766Z</time>
      </trkpt>
      <trkpt lat="47.83006" lon="6.95365">
        <ele>591</ele>
        <time>2015-11-11T11:06:15.769Z</time>
      </trkpt>
      <trkpt lat="47.83026" lon="6.95371">
        <ele>593</ele>
        <time>2015-11-11T11:06:34.766Z</time>
      </trkpt>
      <trkpt lat="47.83041" lon="6.95383">
        <ele>594</ele>
        <time>2015-11-11T11:06:44.769Z</time>
      </trkpt>
      <trkpt lat="47.83092" lon="6.95407">
        <ele>597</ele>
        <time>2015-11-11T11:07:23.77Z</time>
      </trkpt>
      <trkpt lat="47.83141" lon="6.95459">
        <ele>605</ele>
        <time>2015-11-11T11:08:00.768Z</time>
      </trkpt>
      <trkpt lat="47.83163" lon="6.95482">
        <ele>605</ele>
        <time>2015-11-11T11:08:14.771Z</time>
      </trkpt>
      <trkpt lat="47.83168" lon="6.95501">
        <ele>605</ele>
        <time>2015-11-11T11:08:28.775Z</time>
      </trkpt>
      <trkpt lat="47.83196" lon="6.95547">
        <ele>614</ele>
        <time>2015-11-11T11:09:08.768Z</time>
      </trkpt>
      <trkpt lat="47.83237" lon="6.95585">
        <ele>618</ele>
        <time>2015-11-11T11:09:31.773Z</time>
      </trkpt>
      <trkpt lat="47.83279" lon="6.95653">
        <ele>614</ele>
        <time>2015-11-11T11:10:07.775Z</time>
      </trkpt>
      <trkpt lat="47.83299" lon="6.95715">
        <ele>621</ele>
        <time>2015-11-11T11:10:38.773Z</time>
      </trkpt>
      <trkpt lat="47.83303" lon="6.95748">
        <ele>621</ele>
        <time>2015-11-11T11:10:55.771Z</time>
      </trkpt>
      <trkpt lat="47.83309" lon="6.95791">
        <ele>630</ele>
        <time>2015-11-11T11:11:16.774Z</time>
      </trkpt>
      <trkpt lat="47.8332" lon="6.95838">
        <ele>630</ele>
        <time>2015-11-11T11:11:38.775Z</time>
      </trkpt>
      <trkpt lat="47.83329" lon="6.95874">
        <ele>636</ele>
        <time>2015-11-11T11:11:55.768Z</time>
      </trkpt>
      <trkpt lat="47.83332" lon="6.95894">
        <ele>635</ele>
        <time>2015-11-11T11:12:04.771Z</time>
      </trkpt>
      <trkpt lat="47.83339" lon="6.95912">
        <ele>628</ele>
        <time>2015-11-11T11:12:13.774Z</time>
      </trkpt>
      <trkpt lat="47.83358" lon="6.96002">
        <ele>642</ele>
        <time>2015-11-11T11:12:53.774Z</time>
      </trkpt>
      <trkpt lat="47.83365" lon="6.9602">
        <ele>644</ele>
        <time>2015-11-11T11:13:01.774Z</time>
      </trkpt>
      <trkpt lat="47.83359" lon="6.96055">
        <ele>645</ele>
        <time>2015-11-11T11:13:16.77Z</time>
      </trkpt>
      <trkpt lat="47.83359" lon="6.96077">
        <ele>645</ele>
        <time>2015-11-11T11:13:26.77Z</time>
      </trkpt>
      <trkpt lat="47.83361" lon="6.96153">
        <ele>648</ele>
        <time>2015-11-11T11:14:00.774Z</time>
      </trkpt>
      <trkpt lat="47.83341" lon="6.96229">
        <ele>645</ele>
        <time>2015-11-11T11:14:35.771Z</time>
      </trkpt>
      <trkpt lat="47.83331" lon="6.96294">
        <ele>652</ele>
        <time>2015-11-11T11:15:07.771Z</time>
      </trkpt>
      <trkpt lat="47.8332" lon="6.96363">
        <ele>654</ele>
        <time>2015-11-11T11:15:36.771Z</time>
      </trkpt>
      <trkpt lat="47.83313" lon="6.96433">
        <ele>658</ele>
        <time>2015-11-11T11:16:09.771Z</time>
      </trkpt>
      <trkpt lat="47.83313" lon="6.96487">
        <ele>660</ele>
        <time>2015-11-11T11:16:30.775Z</time>
      </trkpt>
      <trkpt lat="47.83313" lon="6.96517">
        <ele>662</ele>
        <time>2015-11-11T11:16:42.766Z</time>
      </trkpt>
      <trkpt lat="47.833" lon="6.96541">
        <ele>665</ele>
        <time>2015-11-11T11:16:54.77Z</time>
      </trkpt>
      <trkpt lat="47.83302" lon="6.96587">
        <ele>665</ele>
        <time>2015-11-11T11:17:14.771Z</time>
      </trkpt>
      <trkpt lat="47.83314" lon="6.96603">
        <ele>665</ele>
        <time>2015-11-11T11:17:21.771Z</time>
      </trkpt>
      <trkpt lat="47.83301" lon="6.96642">
        <ele>667</ele>
        <time>2015-11-11T11:17:43.773Z</time>
      </trkpt>
      <trkpt lat="47.83312" lon="6.96721">
        <ele>670</ele>
        <time>2015-11-11T11:18:20.774Z</time>
      </trkpt>
      <trkpt lat="47.83306" lon="6.96739">
        <ele>670</ele>
        <time>2015-11-11T11:18:29.766Z</time>
      </trkpt>
      <trkpt lat="47.83289" lon="6.96804">
        <ele>670</ele>
        <time>2015-11-11T11:19:01.77Z</time>
      </trkpt>
      <trkpt lat="47.8328" lon="6.96836">
        <ele>669</ele>
        <time>2015-11-11T11:19:18.773Z</time>
      </trkpt>
      <trkpt lat="47.83275" lon="6.96855">
        <ele>669</ele>
        <time>2015-11-11T11:19:27.769Z</time>
      </trkpt>
      <trkpt lat="47.83266" lon="6.9689">
        <ele>669</ele>
        <time>2015-11-11T11:19:45.771Z</time>
      </trkpt>
      <trkpt lat="47.83278" lon="6.96967">
        <ele>668</ele>
        <time>2015-11-11T11:20:22.768Z</time>
      </trkpt>
      <trkpt lat="47.83271" lon="6.96977">
        <ele>668</ele>
        <time>2015-11-11T11:21:22.77Z</time>
      </trkpt>
      <trkpt lat="47.8326" lon="6.96925">
        <ele>668</ele>
        <time>2015-11-11T11:22:17.77Z</time>
      </trkpt>
      <trkpt lat="47.8325" lon="6.96854">
        <ele>669</ele>
        <time>2015-11-11T11:23:09.77Z</time>
      </trkpt>
      <trkpt lat="47.83236" lon="6.96783">
        <ele>684</ele>
        <time>2015-11-11T11:23:45.766Z</time>
      </trkpt>
      <trkpt lat="47.83235" lon="6.96759">
        <ele>680</ele>
        <time>2015-11-11T11:23:54.776Z</time>
      </trkpt>
      <trkpt lat="47.83225" lon="6.96774">
        <ele>686</ele>
        <time>2015-11-11T11:24:14.778Z</time>
      </trkpt>
      <trkpt lat="47.83235" lon="6.96789">
        <ele>685</ele>
        <time>2015-11-11T11:24:23.77Z</time>
      </trkpt>
      <trkpt lat="47.83237" lon="6.96809">
        <ele>683</ele>
        <time>2015-11-11T11:24:33.77Z</time>
      </trkpt>
      <trkpt lat="47.8324" lon="6.96833">
        <ele>676</ele>
        <time>2015-11-11T11:24:45.77Z</time>
      </trkpt>
      <trkpt lat="47.83234" lon="6.96852">
        <ele>684</ele>
        <time>2015-11-11T11:24:55.769Z</time>
      </trkpt>
      <trkpt lat="47.83225" lon="6.96919">
        <ele>686</ele>
        <time>2015-11-11T11:25:30.77Z</time>
      </trkpt>
      <trkpt lat="47.8322" lon="6.96997">
        <ele>689</ele>
        <time>2015-11-11T11:26:05.77Z</time>
      </trkpt>
      <trkpt lat="47.83211" lon="6.97018">
        <ele>693</ele>
        <time>2015-11-11T11:26:19.77Z</time>
      </trkpt>
      <trkpt lat="47.83205" lon="6.97038">
        <ele>695</ele>
        <time>2015-11-11T11:26:28.77Z</time>
      </trkpt>
      <trkpt lat="47.83172" lon="6.97109">
        <ele>702</ele>
        <time>2015-11-11T11:27:07.774Z</time>
      </trkpt>
      <trkpt lat="47.83159" lon="6.97174">
        <ele>716</ele>
        <time>2015-11-11T11:27:44.77Z</time>
      </trkpt>
      <trkpt lat="47.83169" lon="6.97249">
        <ele>710</ele>
        <time>2015-11-11T11:28:22.77Z</time>
      </trkpt>
      <trkpt lat="47.83169" lon="6.97317">
        <ele>709</ele>
        <time>2015-11-11T11:28:52.77Z</time>
      </trkpt>
      <trkpt lat="47.83165" lon="6.9739">
        <ele>728</ele>
        <time>2015-11-11T11:29:28.77Z</time>
      </trkpt>
      <trkpt lat="47.83165" lon="6.97472">
        <ele>733</ele>
        <time>2015-11-11T11:30:08.77Z</time>
      </trkpt>
      <trkpt lat="47.83172" lon="6.97525">
        <ele>720</ele>
        <time>2015-11-11T11:30:36.77Z</time>
      </trkpt>
      <trkpt lat="47.83158" lon="6.97614">
        <ele>735</ele>
        <time>2015-11-11T11:31:20.77Z</time>
      </trkpt>
      <trkpt lat="47.83144" lon="6.97635">
        <ele>737</ele>
        <time>2015-11-11T11:31:32.77Z</time>
      </trkpt>
      <trkpt lat="47.8311" lon="6.97722">
        <ele>740</ele>
        <time>2015-11-11T11:32:25.77Z</time>
      </trkpt>
      <trkpt lat="47.83101" lon="6.97748">
        <ele>744</ele>
        <time>2015-11-11T11:32:35.77Z</time>
      </trkpt>
      <trkpt lat="47.83071" lon="6.97829">
        <ele>753</ele>
        <time>2015-11-11T11:33:20.77Z</time>
      </trkpt>
      <trkpt lat="47.83064" lon="6.97847">
        <ele>750</ele>
        <time>2015-11-11T11:33:31.769Z</time>
      </trkpt>
      <trkpt lat="47.83048" lon="6.97886">
        <ele>752</ele>
        <time>2015-11-11T11:33:52.766Z</time>
      </trkpt>
      <trkpt lat="47.83022" lon="6.97917">
        <ele>750</ele>
        <time>2015-11-11T11:34:12.771Z</time>
      </trkpt>
      <trkpt lat="47.8301" lon="6.97928">
        <ele>754</ele>
        <time>2015-11-11T11:34:26.775Z</time>
      </trkpt>
      <trkpt lat="47.82991" lon="6.97948">
        <ele>768</ele>
        <time>2015-11-11T11:34:42.77Z</time>
      </trkpt>
      <trkpt lat="47.82943" lon="6.97993">
        <ele>774</ele>
        <time>2015-11-11T11:35:21.768Z</time>
      </trkpt>
      <trkpt lat="47.82937" lon="6.98062">
        <ele>766</ele>
        <time>2015-11-11T11:36:02.77Z</time>
      </trkpt>
      <trkpt lat="47.82926" lon="6.98126">
        <ele>769</ele>
        <time>2015-11-11T11:36:31.77Z</time>
      </trkpt>
      <trkpt lat="47.82932" lon="6.98193">
        <ele>773</ele>
        <time>2015-11-11T11:37:02.77Z</time>
      </trkpt>
      <trkpt lat="47.82925" lon="6.98212">
        <ele>774</ele>
        <time>2015-11-11T11:37:10.77Z</time>
      </trkpt>
      <trkpt lat="47.82933" lon="6.98239">
        <ele>776</ele>
        <time>2015-11-11T11:37:27.77Z</time>
      </trkpt>
      <trkpt lat="47.82936" lon="6.98259">
        <ele>779</ele>
        <time>2015-11-11T11:37:37.771Z</time>
      </trkpt>
      <trkpt lat="47.82942" lon="6.98278">
        <ele>777</ele>
        <time>2015-11-11T11:37:46.77Z</time>
      </trkpt>
      <trkpt lat="47.8296" lon="6.98355">
        <ele>780</ele>
        <time>2015-11-11T11:38:24.773Z</time>
      </trkpt>
      <trkpt lat="47.8297" lon="6.98372">
        <ele>780</ele>
        <time>2015-11-11T11:38:34.77Z</time>
      </trkpt>
      <trkpt lat="47.82988" lon="6.98428">
        <ele>781</ele>
        <time>2015-11-11T11:39:06.769Z</time>
      </trkpt>
      <trkpt lat="47.82996" lon="6.98452">
        <ele>783</ele>
        <time>2015-11-11T11:39:18.77Z</time>
      </trkpt>
      <trkpt lat="47.83007" lon="6.9847">
        <ele>786</ele>
        <time>2015-11-11T11:39:30.77Z</time>
      </trkpt>
      <trkpt lat="47.83013" lon="6.98488">
        <ele>787</ele>
        <time>2015-11-11T11:39:40.77Z</time>
      </trkpt>
      <trkpt lat="47.83023" lon="6.98505">
        <ele>790</ele>
        <time>2015-11-11T11:39:52.775Z</time>
      </trkpt>
      <trkpt lat="47.83035" lon="6.98523">
        <ele>791</ele>
        <time>2015-11-11T11:40:03.773Z</time>
      </trkpt>
      <trkpt lat="47.83034" lon="6.98543">
        <ele>791</ele>
        <time>2015-11-11T11:40:22.769Z</time>
      </trkpt>
      <trkpt lat="47.83012" lon="6.98562">
        <ele>785</ele>
        <time>2015-11-11T11:40:47.768Z</time>
      </trkpt>
      <trkpt lat="47.8303" lon="6.98544">
        <ele>790</ele>
        <time>2015-11-11T11:41:47.768Z</time>
      </trkpt>
      <trkpt lat="47.8303" lon="6.98555">
        <ele>789</ele>
        <time>2015-11-11T11:42:47.774Z</time>
      </trkpt>
      <trkpt lat="47.83029" lon="6.98542">
        <ele>790</ele>
        <time>2015-11-11T11:43:48.773Z</time>
      </trkpt>
      <trkpt lat="47.83045" lon="6.9861">
        <ele>789</ele>
        <time>2015-11-11T11:44:49.77Z</time>
      </trkpt>
      <trkpt lat="47.83048" lon="6.98631">
        <ele>789</ele>
        <time>2015-11-11T11:44:57.77Z</time>
      </trkpt>
      <trkpt lat="47.83052" lon="6.98674">
        <ele>788</ele>
        <time>2015-11-11T11:45:14.77Z</time>
      </trkpt>
      <trkpt lat="47.83085" lon="6.98728">
        <ele>813</ele>
        <time>2015-11-11T11:45:51.775Z</time>
      </trkpt>
      <trkpt lat="47.83092" lon="6.98796">
        <ele>820</ele>
        <time>2015-11-11T11:46:27.766Z</time>
      </trkpt>
      <trkpt lat="47.83048" lon="6.98786">
        <ele>795</ele>
        <time>2015-11-11T11:47:15.773Z</time>
      </trkpt>
      <trkpt lat="47.83025" lon="6.9878">
        <ele>790</ele>
        <time>2015-11-11T11:47:31.775Z</time>
      </trkpt>
      <trkpt lat="47.8301" lon="6.98787">
        <ele>790</ele>
        <time>2015-11-11T11:47:40.771Z</time>
      </trkpt>
      <trkpt lat="47.82968" lon="6.98817">
        <ele>781</ele>
        <time>2015-11-11T11:48:26.77Z</time>
      </trkpt>
      <trkpt lat="47.82934" lon="6.98861">
        <ele>794</ele>
        <time>2015-11-11T11:49:08.77Z</time>
      </trkpt>
      <trkpt lat="47.82904" lon="6.98913">
        <ele>789</ele>
        <time>2015-11-11T11:49:57.773Z</time>
      </trkpt>
      <trkpt lat="47.82889" lon="6.98907">
        <ele>783</ele>
        <time>2015-11-11T11:50:07.769Z</time>
      </trkpt>
      <trkpt lat="47.8287" lon="6.98909">
        <ele>778</ele>
        <time>2015-11-11T11:50:21.769Z</time>
      </trkpt>
      <trkpt lat="47.82852" lon="6.98914">
        <ele>776</ele>
        <time>2015-11-11T11:50:31.77Z</time>
      </trkpt>
      <trkpt lat="47.82822" lon="6.98965">
        <ele>774</ele>
        <time>2015-11-11T11:51:07.77Z</time>
      </trkpt>
      <trkpt lat="47.82823" lon="6.99032">
        <ele>791</ele>
        <time>2015-11-11T11:51:44.769Z</time>
      </trkpt>
      <trkpt lat="47.82791" lon="6.99079">
        <ele>793</ele>
        <time>2015-11-11T11:52:35.769Z</time>
      </trkpt>
      <trkpt lat="47.82759" lon="6.99127">
        <ele>804</ele>
        <time>2015-11-11T11:53:35.77Z</time>
      </trkpt>
      <trkpt lat="47.82778" lon="6.9918">
        <ele>816</ele>
        <time>2015-11-11T11:54:07.77Z</time>
      </trkpt>
      <trkpt lat="47.82797" lon="6.99261">
        <ele>830</ele>
        <time>2015-11-11T11:54:49.77Z</time>
      </trkpt>
      <trkpt lat="47.82777" lon="6.99324">
        <ele>828</ele>
        <time>2015-11-11T11:55:39.775Z</time>
      </trkpt>
      <trkpt lat="47.82734" lon="6.9935">
        <ele>831</ele>
        <time>2015-11-11T11:56:29.769Z</time>
      </trkpt>
      <trkpt lat="47.82688" lon="6.99361">
        <ele>834</ele>
        <time>2015-11-11T11:57:19.769Z</time>
      </trkpt>
      <trkpt lat="47.82643" lon="6.99363">
        <ele>834</ele>
        <time>2015-11-11T11:58:14.769Z</time>
      </trkpt>
      <trkpt lat="47.82623" lon="6.99361">
        <ele>834</ele>
        <time>2015-11-11T11:59:14.773Z</time>
      </trkpt>
      <trkpt lat="47.82659" lon="6.99404">
        <ele>848</ele>
        <time>2015-11-11T12:00:10.77Z</time>
      </trkpt>
      <trkpt lat="47.82699" lon="6.99436">
        <ele>865</ele>
        <time>2015-11-11T12:01:02.77Z</time>
      </trkpt>
      <trkpt lat="47.82739" lon="6.9947">
        <ele>871</ele>
        <time>2015-11-11T12:01:59.776Z</time>
      </trkpt>
      <trkpt lat="47.82779" lon="6.99501">
        <ele>888</ele>
        <time>2015-11-11T12:02:45.775Z</time>
      </trkpt>
      <trkpt lat="47.82765" lon="6.99536">
        <ele>894</ele>
        <time>2015-11-11T12:03:46.77Z</time>
      </trkpt>
      <trkpt lat="47.8275" lon="6.99534">
        <ele>894</ele>
        <time>2015-11-11T12:03:52.769Z</time>
      </trkpt>
      <trkpt lat="47.82709" lon="6.99525">
        <ele>898</ele>
        <time>2015-11-11T12:04:26.77Z</time>
      </trkpt>
      <trkpt lat="47.82746" lon="6.9955">
        <ele>904</ele>
        <time>2015-11-11T12:05:26.775Z</time>
      </trkpt>
      <trkpt lat="47.82787" lon="6.99584">
        <ele>918</ele>
        <time>2015-11-11T12:06:14.769Z</time>
      </trkpt>
      <trkpt lat="47.82797" lon="6.99602">
        <ele>917</ele>
        <time>2015-11-11T12:06:22.77Z</time>
      </trkpt>
      <trkpt lat="47.82789" lon="6.99623">
        <ele>922</ele>
        <time>2015-11-11T12:07:10.77Z</time>
      </trkpt>
      <trkpt lat="47.82745" lon="6.99619">
        <ele>928</ele>
        <time>2015-11-11T12:08:10.774Z</time>
      </trkpt>
      <trkpt lat="47.82738" lon="6.99612">
        <ele>926</ele>
        <time>2015-11-11T12:09:11.77Z</time>
      </trkpt>
      <trkpt lat="47.82736" lon="6.9964">
        <ele>931</ele>
        <time>2015-11-11T12:10:11.77Z</time>
      </trkpt>
      <trkpt lat="47.82705" lon="6.99652">
        <ele>929</ele>
        <time>2015-11-11T12:10:56.77Z</time>
      </trkpt>
      <trkpt lat="47.82685" lon="6.99631">
        <ele>926</ele>
        <time>2015-11-11T12:11:56.773Z</time>
      </trkpt>
      <trkpt lat="47.82684" lon="6.99631">
        <ele>926</ele>
        <time>2015-11-11T12:12:57.771Z</time>
      </trkpt>
      <trkpt lat="47.82683" lon="6.99625">
        <ele>925</ele>
        <time>2015-11-11T12:13:57.771Z</time>
      </trkpt>
      <trkpt lat="47.82683" lon="6.99631">
        <ele>925</ele>
        <time>2015-11-11T12:14:58.771Z</time>
      </trkpt>
      <trkpt lat="47.82681" lon="6.99626">
        <ele>925</ele>
        <time>2015-11-11T12:15:58.774Z</time>
      </trkpt>
      <trkpt lat="47.82684" lon="6.99627">
        <ele>925</ele>
        <time>2015-11-11T12:16:58.778Z</time>
      </trkpt>
      <trkpt lat="47.82684" lon="6.99627">
        <ele>925</ele>
        <time>2015-11-11T12:17:59.778Z</time>
      </trkpt>
      <trkpt lat="47.82684" lon="6.99627">
        <ele>925</ele>
        <time>2015-11-11T12:18:59.779Z</time>
      </trkpt>
      <trkpt lat="47.82684" lon="6.99627">
        <ele>925</ele>
        <time>2015-11-11T12:19:59.78Z</time>
      </trkpt>
      <trkpt lat="47.82684" lon="6.99627">
        <ele>925</ele>
        <time>2015-11-11T12:21:00.775Z</time>
      </trkpt>
      <trkpt lat="47.82684" lon="6.99627">
        <ele>925</ele>
        <time>2015-11-11T12:22:01.78Z</time>
      </trkpt>
      <trkpt lat="47.82686" lon="6.99627">
        <ele>925</ele>
        <time>2015-11-11T12:23:02.773Z</time>
      </trkpt>
      <trkpt lat="47.82686" lon="6.99627">
        <ele>925</ele>
        <time>2015-11-11T12:24:02.779Z</time>
      </trkpt>
      <trkpt lat="47.82686" lon="6.99627">
        <ele>925</ele>
        <time>2015-11-11T12:25:03.768Z</time>
      </trkpt>
      <trkpt lat="47.82686" lon="6.99627">
        <ele>925</ele>
        <time>2015-11-11T12:26:03.776Z</time>
      </trkpt>
      <trkpt lat="47.82686" lon="6.99627">
        <ele>925</ele>
        <time>2015-11-11T12:27:03.785Z</time>
      </trkpt>
      <trkpt lat="47.82686" lon="6.99627">
        <ele>925</ele>
        <time>2015-11-11T12:28:04.774Z</time>
      </trkpt>
      <trkpt lat="47.82687" lon="6.99623">
        <ele>925</ele>
        <time>2015-11-11T12:29:04.78Z</time>
      </trkpt>
      <trkpt lat="47.82687" lon="6.99623">
        <ele>925</ele>
        <time>2015-11-11T12:30:04.78Z</time>
      </trkpt>
      <trkpt lat="47.82687" lon="6.99623">
        <ele>925</ele>
        <time>2015-11-11T12:31:04.78Z</time>
      </trkpt>
      <trkpt lat="47.82687" lon="6.99623">
        <ele>925</ele>
        <time>2015-11-11T12:32:04.78Z</time>
      </trkpt>
      <trkpt lat="47.82687" lon="6.99623">
        <ele>925</ele>
        <time>2015-11-11T12:33:05.783Z</time>
      </trkpt>
      <trkpt lat="47.82687" lon="6.99624">
        <ele>925</ele>
        <time>2015-11-11T12:34:06.781Z</time>
      </trkpt>
      <trkpt lat="47.82687" lon="6.99623">
        <ele>925</ele>
        <time>2015-11-11T12:35:06.784Z</time>
      </trkpt>
      <trkpt lat="47.82687" lon="6.99623">
        <ele>925</ele>
        <time>2015-11-11T12:36:06.784Z</time>
      </trkpt>
      <trkpt lat="47.82688" lon="6.99624">
        <ele>925</ele>
        <time>2015-11-11T12:37:07.781Z</time>
      </trkpt>
      <trkpt lat="47.82688" lon="6.99624">
        <ele>925</ele>
        <time>2015-11-11T12:38:08.781Z</time>
      </trkpt>
      <trkpt lat="47.82682" lon="6.99624">
        <ele>925</ele>
        <time>2015-11-11T12:39:09.778Z</time>
      </trkpt>
      <trkpt lat="47.82682" lon="6.99624">
        <ele>925</ele>
        <time>2015-11-11T12:40:09.783Z</time>
      </trkpt>
      <trkpt lat="47.82682" lon="6.99624">
        <ele>925</ele>
        <time>2015-11-11T12:41:10.776Z</time>
      </trkpt>
      <trkpt lat="47.82686" lon="6.99628">
        <ele>925</ele>
        <time>2015-11-11T12:42:10.778Z</time>
      </trkpt>
      <trkpt lat="47.82687" lon="6.99628">
        <ele>925</ele>
        <time>2015-11-11T12:43:11.775Z</time>
      </trkpt>
      <trkpt lat="47.82687" lon="6.99628">
        <ele>925</ele>
        <time>2015-11-11T12:44:11.776Z</time>
      </trkpt>
      <trkpt lat="47.82687" lon="6.99628">
        <ele>925</ele>
        <time>2015-11-11T12:45:11.781Z</time>
      </trkpt>
      <trkpt lat="47.82687" lon="6.99628">
        <ele>925</ele>
        <time>2015-11-11T12:46:11.781Z</time>
      </trkpt>
      <trkpt lat="47.82687" lon="6.99628">
        <ele>925</ele>
        <time>2015-11-11T12:47:12.78Z</time>
      </trkpt>
      <trkpt lat="47.82687" lon="6.99631">
        <ele>926</ele>
        <time>2015-11-11T12:48:12.78Z</time>
      </trkpt>
      <trkpt lat="47.82686" lon="6.9963">
        <ele>925</ele>
        <time>2015-11-11T12:49:12.781Z</time>
      </trkpt>
      <trkpt lat="47.82686" lon="6.9963">
        <ele>925</ele>
        <time>2015-11-11T12:50:12.785Z</time>
      </trkpt>
      <trkpt lat="47.82686" lon="6.9963">
        <ele>925</ele>
        <time>2015-11-11T12:51:12.785Z</time>
      </trkpt>
      <trkpt lat="47.82686" lon="6.99629">
        <ele>925</ele>
        <time>2015-11-11T12:52:13.783Z</time>
      </trkpt>
      <trkpt lat="47.82686" lon="6.99629">
        <ele>925</ele>
        <time>2015-11-11T12:53:13.785Z</time>
      </trkpt>
      <trkpt lat="47.82682" lon="6.99626">
        <ele>925</ele>
        <time>2015-11-11T12:54:13.785Z</time>
      </trkpt>
      <trkpt lat="47.82687" lon="6.99635">
        <ele>926</ele>
        <time>2015-11-11T12:55:14.78Z</time>
      </trkpt>
      <trkpt lat="47.82689" lon="6.99632">
        <ele>926</ele>
        <time>2015-11-11T12:56:14.785Z</time>
      </trkpt>
      <trkpt lat="47.82689" lon="6.9963">
        <ele>926</ele>
        <time>2015-11-11T12:57:14.785Z</time>
      </trkpt>
      <trkpt lat="47.82681" lon="6.99626">
        <ele>925</ele>
        <time>2015-11-11T12:58:15.785Z</time>
      </trkpt>
      <trkpt lat="47.82699" lon="6.99634">
        <ele>927</ele>
        <time>2015-11-11T12:58:59.774Z</time>
      </trkpt>
      <trkpt lat="47.82691" lon="6.99637">
        <ele>926</ele>
        <time>2015-11-11T12:59:59.783Z</time>
      </trkpt>
      <trkpt lat="47.8269" lon="6.99621">
        <ele>925</ele>
        <time>2015-11-11T13:01:00.774Z</time>
      </trkpt>
      <trkpt lat="47.82689" lon="6.99621">
        <ele>925</ele>
        <time>2015-11-11T13:02:00.783Z</time>
      </trkpt>
      <trkpt lat="47.82689" lon="6.99621">
        <ele>925</ele>
        <time>2015-11-11T13:03:00.783Z</time>
      </trkpt>
      <trkpt lat="47.82689" lon="6.99621">
        <ele>925</ele>
        <time>2015-11-11T13:04:00.785Z</time>
      </trkpt>
      <trkpt lat="47.82689" lon="6.99621">
        <ele>925</ele>
        <time>2015-11-11T13:05:01.779Z</time>
      </trkpt>
      <trkpt lat="47.82688" lon="6.99627">
        <ele>925</ele>
        <time>2015-11-11T13:06:02.778Z</time>
      </trkpt>
      <trkpt lat="47.82688" lon="6.99626">
        <ele>925</ele>
        <time>2015-11-11T13:07:02.778Z</time>
      </trkpt>
      <trkpt lat="47.82684" lon="6.99629">
        <ele>925</ele>
        <time>2015-11-11T13:08:02.779Z</time>
      </trkpt>
      <trkpt lat="47.82688" lon="6.99639">
        <ele>926</ele>
        <time>2015-11-11T13:09:02.783Z</time>
      </trkpt>
      <trkpt lat="47.82686" lon="6.99631">
        <ele>926</ele>
        <time>2015-11-11T13:10:03.776Z</time>
      </trkpt>
      <trkpt lat="47.82697" lon="6.99635">
        <ele>927</ele>
        <time>2015-11-11T13:11:04.774Z</time>
      </trkpt>
      <trkpt lat="47.82726" lon="6.99675">
        <ele>945</ele>
        <time>2015-11-11T13:12:04.778Z</time>
      </trkpt>
      <trkpt lat="47.82746" lon="6.99724">
        <ele>954</ele>
        <time>2015-11-11T13:13:04.78Z</time>
      </trkpt>
      <trkpt lat="47.82779" lon="6.99775">
        <ele>974</ele>
        <time>2015-11-11T13:13:38.775Z</time>
      </trkpt>
      <trkpt lat="47.82764" lon="6.9978">
        <ele>975</ele>
        <time>2015-11-11T13:13:51.775Z</time>
      </trkpt>
      <trkpt lat="47.8273" lon="6.99827">
        <ele>977</ele>
        <time>2015-11-11T13:14:46.775Z</time>
      </trkpt>
      <trkpt lat="47.82727" lon="6.9985">
        <ele>989</ele>
        <time>2015-11-11T13:15:01.775Z</time>
      </trkpt>
      <trkpt lat="47.82713" lon="6.99918">
        <ele>1010</ele>
        <time>2015-11-11T13:15:41.775Z</time>
      </trkpt>
      <trkpt lat="47.82698" lon="6.99954">
        <ele>1013</ele>
        <time>2015-11-11T13:16:05.775Z</time>
      </trkpt>
      <trkpt lat="47.82689" lon="6.9998">
        <ele>1016</ele>
        <time>2015-11-11T13:16:20.774Z</time>
      </trkpt>
      <trkpt lat="47.82676" lon="6.99985">
        <ele>1016</ele>
        <time>2015-11-11T13:16:27.774Z</time>
      </trkpt>
      <trkpt lat="47.82657" lon="6.99972">
        <ele>1012</ele>
        <time>2015-11-11T13:16:46.773Z</time>
      </trkpt>
      <trkpt lat="47.82609" lon="6.9994">
        <ele>1008</ele>
        <time>2015-11-11T13:17:18.771Z</time>
      </trkpt>
      <trkpt lat="47.82561" lon="6.999">
        <ele>987</ele>
        <time>2015-11-11T13:17:59.773Z</time>
      </trkpt>
      <trkpt lat="47.82547" lon="6.99903">
        <ele>985</ele>
        <time>2015-11-11T13:18:06.77Z</time>
      </trkpt>
      <trkpt lat="47.82512" lon="6.99859">
        <ele>976</ele>
        <time>2015-11-11T13:18:54.77Z</time>
      </trkpt>
      <trkpt lat="47.82512" lon="6.99833">
        <ele>972</ele>
        <time>2015-11-11T13:19:15.775Z</time>
      </trkpt>
      <trkpt lat="47.82507" lon="6.99836">
        <ele>970</ele>
        <time>2015-11-11T13:20:16.77Z</time>
      </trkpt>
      <trkpt lat="47.8251" lon="6.99832">
        <ele>962</ele>
        <time>2015-11-11T13:21:16.778Z</time>
      </trkpt>
      <trkpt lat="47.8251" lon="6.99832">
        <ele>962</ele>
        <time>2015-11-11T13:22:17.78Z</time>
      </trkpt>
      <trkpt lat="47.8251" lon="6.9983">
        <ele>961</ele>
        <time>2015-11-11T13:23:18.78Z</time>
      </trkpt>
      <trkpt lat="47.82511" lon="6.99831">
        <ele>961</ele>
        <time>2015-11-11T13:24:19.773Z</time>
      </trkpt>
      <trkpt lat="47.82511" lon="6.99833">
        <ele>961</ele>
        <time>2015-11-11T13:25:19.773Z</time>
      </trkpt>
      <trkpt lat="47.82511" lon="6.99833">
        <ele>961</ele>
        <time>2015-11-11T13:26:19.774Z</time>
      </trkpt>
      <trkpt lat="47.82512" lon="6.99833">
        <ele>961</ele>
        <time>2015-11-11T13:27:20.769Z</time>
      </trkpt>
      <trkpt lat="47.82513" lon="6.99832">
        <ele>960</ele>
        <time>2015-11-11T13:28:20.776Z</time>
      </trkpt>
      <trkpt lat="47.82512" lon="6.99832">
        <ele>961</ele>
        <time>2015-11-11T13:29:20.78Z</time>
      </trkpt>
      <trkpt lat="47.82512" lon="6.9983">
        <ele>960</ele>
        <time>2015-11-11T13:30:21.774Z</time>
      </trkpt>
      <trkpt lat="47.82517" lon="6.99898">
        <ele>984</ele>
        <time>2015-11-11T13:31:14.776Z</time>
      </trkpt>
      <trkpt lat="47.82519" lon="6.99944">
        <ele>1004</ele>
        <time>2015-11-11T13:31:50.774Z</time>
      </trkpt>
      <trkpt lat="47.82539" lon="6.99973">
        <ele>1011</ele>
        <time>2015-11-11T13:32:50.774Z</time>
      </trkpt>
      <trkpt lat="47.82576" lon="7.00003">
        <ele>1035</ele>
        <time>2015-11-11T13:33:51.773Z</time>
      </trkpt>
      <trkpt lat="47.82611" lon="7.00044">
        <ele>1045</ele>
        <time>2015-11-11T13:34:39.77Z</time>
      </trkpt>
      <trkpt lat="47.82593" lon="7.00066">
        <ele>1054</ele>
        <time>2015-11-11T13:35:39.775Z</time>
      </trkpt>
      <trkpt lat="47.82571" lon="7.00078">
        <ele>1054</ele>
        <time>2015-11-11T13:36:40.768Z</time>
      </trkpt>
      <trkpt lat="47.82548" lon="7.00101">
        <ele>1060</ele>
        <time>2015-11-11T13:37:02.769Z</time>
      </trkpt>
      <trkpt lat="47.82539" lon="7.00123">
        <ele>1060</ele>
        <time>2015-11-11T13:37:16.77Z</time>
      </trkpt>
      <trkpt lat="47.82531" lon="7.00155">
        <ele>1061</ele>
        <time>2015-11-11T13:37:30.769Z</time>
      </trkpt>
      <trkpt lat="47.82529" lon="7.00232">
        <ele>1078</ele>
        <time>2015-11-11T13:38:13.765Z</time>
      </trkpt>
      <trkpt lat="47.82532" lon="7.003">
        <ele>1098</ele>
        <time>2015-11-11T13:38:49.765Z</time>
      </trkpt>
      <trkpt lat="47.82495" lon="7.00339">
        <ele>1094</ele>
        <time>2015-11-11T13:39:23.765Z</time>
      </trkpt>
      <trkpt lat="47.8244" lon="7.00375">
        <ele>1095</ele>
        <time>2015-11-11T13:40:19.768Z</time>
      </trkpt>
      <trkpt lat="47.82398" lon="7.00408">
        <ele>1095</ele>
        <time>2015-11-11T13:40:56.766Z</time>
      </trkpt>
      <trkpt lat="47.82384" lon="7.00408">
        <ele>1094</ele>
        <time>2015-11-11T13:41:03.77Z</time>
      </trkpt>
      <trkpt lat="47.82334" lon="7.00384">
        <ele>1092</ele>
        <time>2015-11-11T13:41:42.77Z</time>
      </trkpt>
      <trkpt lat="47.82341" lon="7.00449">
        <ele>1111</ele>
        <time>2015-11-11T13:42:42.774Z</time>
      </trkpt>
      <trkpt lat="47.82361" lon="7.00509">
        <ele>1124</ele>
        <time>2015-11-11T13:43:31.768Z</time>
      </trkpt>
      <trkpt lat="47.82369" lon="7.00555">
        <ele>1127</ele>
        <time>2015-11-11T13:44:15.765Z</time>
      </trkpt>
      <trkpt lat="47.82358" lon="7.00581">
        <ele>1128</ele>
        <time>2015-11-11T13:45:15.765Z</time>
      </trkpt>
      <trkpt lat="47.82345" lon="7.00603">
        <ele>1134</ele>
        <time>2015-11-11T13:46:15.765Z</time>
      </trkpt>
      <trkpt lat="47.82341" lon="7.00624">
        <ele>1135</ele>
        <time>2015-11-11T13:46:22.765Z</time>
      </trkpt>
      <trkpt lat="47.82334" lon="7.00649">
        <ele>1137</ele>
        <time>2015-11-11T13:46:49.764Z</time>
      </trkpt>
      <trkpt lat="47.82303" lon="7.00711">
        <ele>1145</ele>
        <time>2015-11-11T13:47:48.76Z</time>
      </trkpt>
      <trkpt lat="47.82293" lon="7.00753">
        <ele>1151</ele>
        <time>2015-11-11T13:48:48.76Z</time>
      </trkpt>
      <trkpt lat="47.82259" lon="7.00798">
        <ele>1154</ele>
        <time>2015-11-11T13:49:47.765Z</time>
      </trkpt>
      <trkpt lat="47.82242" lon="7.00804">
        <ele>1160</ele>
        <time>2015-11-11T13:50:05.765Z</time>
      </trkpt>
      <trkpt lat="47.82228" lon="7.00803">
        <ele>1160</ele>
        <time>2015-11-11T13:50:23.765Z</time>
      </trkpt>
      <trkpt lat="47.8218" lon="7.00805">
        <ele>1163</ele>
        <time>2015-11-11T13:51:10.766Z</time>
      </trkpt>
      <trkpt lat="47.82164" lon="7.00812">
        <ele>1169</ele>
        <time>2015-11-11T13:51:21.765Z</time>
      </trkpt>
      <trkpt lat="47.82134" lon="7.00833">
        <ele>1171</ele>
        <time>2015-11-11T13:52:21.765Z</time>
      </trkpt>
      <trkpt lat="47.8209" lon="7.00857">
        <ele>1178</ele>
        <time>2015-11-11T13:53:07.765Z</time>
      </trkpt>
      <trkpt lat="47.82054" lon="7.00886">
        <ele>1182</ele>
        <time>2015-11-11T13:53:42.766Z</time>
      </trkpt>
      <trkpt lat="47.8204" lon="7.00896">
        <ele>1182</ele>
        <time>2015-11-11T13:53:56.766Z</time>
      </trkpt>
      <trkpt lat="47.82037" lon="7.00893">
        <ele>1182</ele>
        <time>2015-11-11T13:54:56.773Z</time>
      </trkpt>
      <trkpt lat="47.82035" lon="7.00891">
        <ele>1182</ele>
        <time>2015-11-11T13:55:57.77Z</time>
      </trkpt>
      <trkpt lat="47.8204" lon="7.00892">
        <ele>1182</ele>
        <time>2015-11-11T13:56:57.78Z</time>
      </trkpt>
      <trkpt lat="47.82035" lon="7.00892">
        <ele>1182</ele>
        <time>2015-11-11T13:57:58.774Z</time>
      </trkpt>
      <trkpt lat="47.82036" lon="7.00893">
        <ele>1182</ele>
        <time>2015-11-11T13:58:59.773Z</time>
      </trkpt>
      <trkpt lat="47.82036" lon="7.00892">
        <ele>1182</ele>
        <time>2015-11-11T13:59:59.796Z</time>
      </trkpt>
      <trkpt lat="47.82035" lon="7.00895">
        <ele>1182</ele>
        <time>2015-11-11T14:01:00.784Z</time>
      </trkpt>
      <trkpt lat="47.82035" lon="7.00892">
        <ele>1182</ele>
        <time>2015-11-11T14:02:01.773Z</time>
      </trkpt>
      <trkpt lat="47.82035" lon="7.00892">
        <ele>1182</ele>
        <time>2015-11-11T14:03:01.778Z</time>
      </trkpt>
      <trkpt lat="47.82034" lon="7.00893">
        <ele>1182</ele>
        <time>2015-11-11T14:04:01.791Z</time>
      </trkpt>
      <trkpt lat="47.82035" lon="7.00893">
        <ele>1182</ele>
        <time>2015-11-11T14:05:03.784Z</time>
      </trkpt>
      <trkpt lat="47.82037" lon="7.00891">
        <ele>1182</ele>
        <time>2015-11-11T14:06:04.78Z</time>
      </trkpt>
      <trkpt lat="47.82033" lon="7.00891">
        <ele>1182</ele>
        <time>2015-11-11T14:07:04.793Z</time>
      </trkpt>
      <trkpt lat="47.82034" lon="7.00892">
        <ele>1182</ele>
        <time>2015-11-11T14:08:05.783Z</time>
      </trkpt>
      <trkpt lat="47.82034" lon="7.00892">
        <ele>1182</ele>
        <time>2015-11-11T14:09:05.793Z</time>
      </trkpt>
      <trkpt lat="47.82034" lon="7.00892">
        <ele>1182</ele>
        <time>2015-11-11T14:10:06.785Z</time>
      </trkpt>
      <trkpt lat="47.82034" lon="7.00892">
        <ele>1182</ele>
        <time>2015-11-11T14:11:06.786Z</time>
      </trkpt>
      <trkpt lat="47.82034" lon="7.00892">
        <ele>1182</ele>
        <time>2015-11-11T14:12:06.788Z</time>
      </trkpt>
      <trkpt lat="47.82034" lon="7.00892">
        <ele>1182</ele>
        <time>2015-11-11T14:13:07.785Z</time>
      </trkpt>
      <trkpt lat="47.82034" lon="7.0089">
        <ele>1182</ele>
        <time>2015-11-11T14:14:07.795Z</time>
      </trkpt>
      <trkpt lat="47.82043" lon="7.00898">
        <ele>1182</ele>
        <time>2015-11-11T14:15:08.781Z</time>
      </trkpt>
      <trkpt lat="47.82057" lon="7.00905">
        <ele>1182</ele>
        <time>2015-11-11T14:15:20.784Z</time>
      </trkpt>
      <trkpt lat="47.82104" lon="7.00934">
        <ele>1181</ele>
        <time>2015-11-11T14:16:21.781Z</time>
      </trkpt>
      <trkpt lat="47.82112" lon="7.00952">
        <ele>1180</ele>
        <time>2015-11-11T14:17:07.785Z</time>
      </trkpt>
      <trkpt lat="47.8214" lon="7.0105">
        <ele>1174</ele>
        <time>2015-11-11T14:18:07.785Z</time>
      </trkpt>
      <trkpt lat="47.82151" lon="7.01075">
        <ele>1172</ele>
        <time>2015-11-11T14:18:24.781Z</time>
      </trkpt>
      <trkpt lat="47.82159" lon="7.01091">
        <ele>1168</ele>
        <time>2015-11-11T14:18:34.779Z</time>
      </trkpt>
      <trkpt lat="47.82163" lon="7.0111">
        <ele>1165</ele>
        <time>2015-11-11T14:18:42.783Z</time>
      </trkpt>
      <trkpt lat="47.8217" lon="7.01136">
        <ele>1162</ele>
        <time>2015-11-11T14:18:59.776Z</time>
      </trkpt>
      <trkpt lat="47.82203" lon="7.01243">
        <ele>1145</ele>
        <time>2015-11-11T14:20:00.773Z</time>
      </trkpt>
      <trkpt lat="47.82231" lon="7.01336">
        <ele>1123</ele>
        <time>2015-11-11T14:20:57.775Z</time>
      </trkpt>
      <trkpt lat="47.82234" lon="7.01391">
        <ele>1119</ele>
        <time>2015-11-11T14:21:26.775Z</time>
      </trkpt>
      <trkpt lat="47.82239" lon="7.01442">
        <ele>1111</ele>
        <time>2015-11-11T14:21:51.771Z</time>
      </trkpt>
      <trkpt lat="47.82239" lon="7.01471">
        <ele>1108</ele>
        <time>2015-11-11T14:22:03.775Z</time>
      </trkpt>
      <trkpt lat="47.82242" lon="7.01524">
        <ele>1103</ele>
        <time>2015-11-11T14:22:27.77Z</time>
      </trkpt>
      <trkpt lat="47.8224" lon="7.01549">
        <ele>1102</ele>
        <time>2015-11-11T14:22:40.77Z</time>
      </trkpt>
      <trkpt lat="47.8224" lon="7.01578">
        <ele>1102</ele>
        <time>2015-11-11T14:22:53.77Z</time>
      </trkpt>
      <trkpt lat="47.8224" lon="7.01599">
        <ele>1101</ele>
        <time>2015-11-11T14:23:03.773Z</time>
      </trkpt>
      <trkpt lat="47.82241" lon="7.01722">
        <ele>1101</ele>
        <time>2015-11-11T14:24:03.774Z</time>
      </trkpt>
      <trkpt lat="47.82248" lon="7.01761">
        <ele>1101</ele>
        <time>2015-11-11T14:24:22.773Z</time>
      </trkpt>
      <trkpt lat="47.82254" lon="7.01794">
        <ele>1098</ele>
        <time>2015-11-11T14:24:40.77Z</time>
      </trkpt>
      <trkpt lat="47.82269" lon="7.01923">
        <ele>1097</ele>
        <time>2015-11-11T14:25:40.775Z</time>
      </trkpt>
      <trkpt lat="47.82284" lon="7.01989">
        <ele>1097</ele>
        <time>2015-11-11T14:26:16.766Z</time>
      </trkpt>
      <trkpt lat="47.82282" lon="7.0201">
        <ele>1097</ele>
        <time>2015-11-11T14:26:28.766Z</time>
      </trkpt>
      <trkpt lat="47.82281" lon="7.02042">
        <ele>1097</ele>
        <time>2015-11-11T14:26:45.766Z</time>
      </trkpt>
      <trkpt lat="47.82282" lon="7.02062">
        <ele>1098</ele>
        <time>2015-11-11T14:26:55.766Z</time>
      </trkpt>
      <trkpt lat="47.82285" lon="7.02083">
        <ele>1098</ele>
        <time>2015-11-11T14:27:06.766Z</time>
      </trkpt>
      <trkpt lat="47.82294" lon="7.02148">
        <ele>1101</ele>
        <time>2015-11-11T14:27:42.77Z</time>
      </trkpt>
      <trkpt lat="47.823" lon="7.02174">
        <ele>1106</ele>
        <time>2015-11-11T14:27:59.765Z</time>
      </trkpt>
      <trkpt lat="47.8232" lon="7.02268">
        <ele>1116</ele>
        <time>2015-11-11T14:28:59.766Z</time>
      </trkpt>
      <trkpt lat="47.82323" lon="7.02303">
        <ele>1120</ele>
        <time>2015-11-11T14:29:24.77Z</time>
      </trkpt>
      <trkpt lat="47.82316" lon="7.02388">
        <ele>1133</ele>
        <time>2015-11-11T14:30:23.765Z</time>
      </trkpt>
      <trkpt lat="47.82314" lon="7.02412">
        <ele>1136</ele>
        <time>2015-11-11T14:30:43.765Z</time>
      </trkpt>
      <trkpt lat="47.82313" lon="7.02485">
        <ele>1146</ele>
        <time>2015-11-11T14:31:42.763Z</time>
      </trkpt>
      <trkpt lat="47.82315" lon="7.02548">
        <ele>1152</ele>
        <time>2015-11-11T14:32:26.765Z</time>
      </trkpt>
      <trkpt lat="47.82306" lon="7.02564">
        <ele>1152</ele>
        <time>2015-11-11T14:32:44.76Z</time>
      </trkpt>
      <trkpt lat="47.8229" lon="7.02566">
        <ele>1151</ele>
        <time>2015-11-11T14:32:58.765Z</time>
      </trkpt>
      <trkpt lat="47.82277" lon="7.02568">
        <ele>1150</ele>
        <time>2015-11-11T14:33:58.77Z</time>
      </trkpt>
      <trkpt lat="47.82277" lon="7.0257">
        <ele>1150</ele>
        <time>2015-11-11T14:34:58.77Z</time>
      </trkpt>
      <trkpt lat="47.82277" lon="7.0257">
        <ele>1150</ele>
        <time>2015-11-11T14:35:58.771Z</time>
      </trkpt>
      <trkpt lat="47.82277" lon="7.0257">
        <ele>1150</ele>
        <time>2015-11-11T14:36:59.775Z</time>
      </trkpt>
      <trkpt lat="47.82278" lon="7.0257">
        <ele>1150</ele>
        <time>2015-11-11T14:38:00.769Z</time>
      </trkpt>
      <trkpt lat="47.8228" lon="7.02571">
        <ele>1150</ele>
        <time>2015-11-11T14:39:00.77Z</time>
      </trkpt>
      <trkpt lat="47.82294" lon="7.02572">
        <ele>1151</ele>
        <time>2015-11-11T14:39:45.765Z</time>
      </trkpt>
      <trkpt lat="47.8237" lon="7.02562">
        <ele>1161</ele>
        <time>2015-11-11T14:40:45.771Z</time>
      </trkpt>
      <trkpt lat="47.82415" lon="7.02565">
        <ele>1165</ele>
        <time>2015-11-11T14:41:33.775Z</time>
      </trkpt>
      <trkpt lat="47.82439" lon="7.02561">
        <ele>1165</ele>
        <time>2015-11-11T14:42:33.779Z</time>
      </trkpt>
      <trkpt lat="47.82417" lon="7.02552">
        <ele>1166</ele>
        <time>2015-11-11T14:43:17.77Z</time>
      </trkpt>
      <trkpt lat="47.82403" lon="7.02547">
        <ele>1164</ele>
        <time>2015-11-11T14:43:31.769Z</time>
      </trkpt>
      <trkpt lat="47.82385" lon="7.02544">
        <ele>1162</ele>
        <time>2015-11-11T14:43:45.766Z</time>
      </trkpt>
      <trkpt lat="47.82372" lon="7.02554">
        <ele>1161</ele>
        <time>2015-11-11T14:44:14.764Z</time>
      </trkpt>
      <trkpt lat="47.82371" lon="7.02574">
        <ele>1162</ele>
        <time>2015-11-11T14:44:24.768Z</time>
      </trkpt>
      <trkpt lat="47.82379" lon="7.02594">
        <ele>1160</ele>
        <time>2015-11-11T14:44:35.765Z</time>
      </trkpt>
      <trkpt lat="47.82384" lon="7.02615">
        <ele>1160</ele>
        <time>2015-11-11T14:44:47.77Z</time>
      </trkpt>
      <trkpt lat="47.82415" lon="7.02663">
        <ele>1161</ele>
        <time>2015-11-11T14:45:23.768Z</time>
      </trkpt>
      <trkpt lat="47.82429" lon="7.02682">
        <ele>1154</ele>
        <time>2015-11-11T14:45:38.763Z</time>
      </trkpt>
      <trkpt lat="47.82448" lon="7.02718">
        <ele>1148</ele>
        <time>2015-11-11T14:45:57.77Z</time>
      </trkpt>
      <trkpt lat="47.82461" lon="7.02725">
        <ele>1147</ele>
        <time>2015-11-11T14:46:07.765Z</time>
      </trkpt>
      <trkpt lat="47.82472" lon="7.02739">
        <ele>1146</ele>
        <time>2015-11-11T14:46:21.764Z</time>
      </trkpt>
      <trkpt lat="47.82492" lon="7.0275">
        <ele>1138</ele>
        <time>2015-11-11T14:46:48.764Z</time>
      </trkpt>
      <trkpt lat="47.82537" lon="7.02748">
        <ele>1137</ele>
        <time>2015-11-11T14:47:44.769Z</time>
      </trkpt>
      <trkpt lat="47.82578" lon="7.02737">
        <ele>1130</ele>
        <time>2015-11-11T14:48:45.77Z</time>
      </trkpt>
      <trkpt lat="47.826" lon="7.02712">
        <ele>1112</ele>
        <time>2015-11-11T14:49:14.763Z</time>
      </trkpt>
      <trkpt lat="47.82605" lon="7.02689">
        <ele>1114</ele>
        <time>2015-11-11T14:49:24.761Z</time>
      </trkpt>
      <trkpt lat="47.8261" lon="7.02667">
        <ele>1115</ele>
        <time>2015-11-11T14:49:36.759Z</time>
      </trkpt>
      <trkpt lat="47.82624" lon="7.02603">
        <ele>1118</ele>
        <time>2015-11-11T14:50:12.761Z</time>
      </trkpt>
      <trkpt lat="47.82629" lon="7.02584">
        <ele>1117</ele>
        <time>2015-11-11T14:50:21.761Z</time>
      </trkpt>
      <trkpt lat="47.82632" lon="7.02506">
        <ele>1111</ele>
        <time>2015-11-11T14:51:02.76Z</time>
      </trkpt>
      <trkpt lat="47.82631" lon="7.02483">
        <ele>1103</ele>
        <time>2015-11-11T14:51:14.76Z</time>
      </trkpt>
      <trkpt lat="47.82621" lon="7.02418">
        <ele>1101</ele>
        <time>2015-11-11T14:52:15.758Z</time>
      </trkpt>
      <trkpt lat="47.82598" lon="7.02292">
        <ele>1082</ele>
        <time>2015-11-11T14:53:15.758Z</time>
      </trkpt>
      <trkpt lat="47.82601" lon="7.02273">
        <ele>1081</ele>
        <time>2015-11-11T14:53:26.756Z</time>
      </trkpt>
      <trkpt lat="47.82593" lon="7.02252">
        <ele>1083</ele>
        <time>2015-11-11T14:53:35.756Z</time>
      </trkpt>
      <trkpt lat="47.82594" lon="7.02231">
        <ele>1075</ele>
        <time>2015-11-11T14:53:46.755Z</time>
      </trkpt>
      <trkpt lat="47.82594" lon="7.02233">
        <ele>1075</ele>
        <time>2015-11-11T14:54:46.761Z</time>
      </trkpt>
      <trkpt lat="47.82594" lon="7.02226">
        <ele>1073</ele>
        <time>2015-11-11T14:55:47.758Z</time>
      </trkpt>
      <trkpt lat="47.82596" lon="7.0223">
        <ele>1074</ele>
        <time>2015-11-11T14:56:47.765Z</time>
      </trkpt>
      <trkpt lat="47.82592" lon="7.02227">
        <ele>1074</ele>
        <time>2015-11-11T14:57:47.773Z</time>
      </trkpt>
      <trkpt lat="47.82595" lon="7.02228">
        <ele>1073</ele>
        <time>2015-11-11T14:58:47.775Z</time>
      </trkpt>
      <trkpt lat="47.82592" lon="7.02225">
        <ele>1073</ele>
        <time>2015-11-11T14:59:48.766Z</time>
      </trkpt>
      <trkpt lat="47.82592" lon="7.02225">
        <ele>1073</ele>
        <time>2015-11-11T15:00:48.775Z</time>
      </trkpt>
      <trkpt lat="47.82595" lon="7.02227">
        <ele>1073</ele>
        <time>2015-11-11T15:01:48.775Z</time>
      </trkpt>
      <trkpt lat="47.82594" lon="7.02224">
        <ele>1073</ele>
        <time>2015-11-11T15:02:48.775Z</time>
      </trkpt>
      <trkpt lat="47.82584" lon="7.02209">
        <ele>1071</ele>
        <time>2015-11-11T15:02:59.77Z</time>
      </trkpt>
      <trkpt lat="47.82556" lon="7.02149">
        <ele>1072</ele>
        <time>2015-11-11T15:03:36.77Z</time>
      </trkpt>
      <trkpt lat="47.82546" lon="7.02133">
        <ele>1072</ele>
        <time>2015-11-11T15:03:46.766Z</time>
      </trkpt>
      <trkpt lat="47.82488" lon="7.02047">
        <ele>1079</ele>
        <time>2015-11-11T15:04:39.77Z</time>
      </trkpt>
      <trkpt lat="47.82475" lon="7.02031">
        <ele>1080</ele>
        <time>2015-11-11T15:04:53.77Z</time>
      </trkpt>
      <trkpt lat="47.82434" lon="7.01987">
        <ele>1081</ele>
        <time>2015-11-11T15:05:34.765Z</time>
      </trkpt>
      <trkpt lat="47.82395" lon="7.01968">
        <ele>1089</ele>
        <time>2015-11-11T15:06:10.77Z</time>
      </trkpt>
      <trkpt lat="47.82376" lon="7.0197">
        <ele>1090</ele>
        <time>2015-11-11T15:06:29.765Z</time>
      </trkpt>
      <trkpt lat="47.82331" lon="7.01981">
        <ele>1096</ele>
        <time>2015-11-11T15:07:07.765Z</time>
      </trkpt>
      <trkpt lat="47.82315" lon="7.01981">
        <ele>1096</ele>
        <time>2015-11-11T15:07:21.78Z</time>
      </trkpt>
      <trkpt lat="47.82296" lon="7.01984">
        <ele>1096</ele>
        <time>2015-11-11T15:07:37.769Z</time>
      </trkpt>
      <trkpt lat="47.82286" lon="7.01971">
        <ele>1097</ele>
        <time>2015-11-11T15:07:49.765Z</time>
      </trkpt>
      <trkpt lat="47.82279" lon="7.01943">
        <ele>1097</ele>
        <time>2015-11-11T15:08:04.769Z</time>
      </trkpt>
      <trkpt lat="47.82272" lon="7.01906">
        <ele>1098</ele>
        <time>2015-11-11T15:08:26.763Z</time>
      </trkpt>
      <trkpt lat="47.82266" lon="7.01887">
        <ele>1098</ele>
        <time>2015-11-11T15:08:34.763Z</time>
      </trkpt>
      <trkpt lat="47.82263" lon="7.01847">
        <ele>1099</ele>
        <time>2015-11-11T15:08:55.761Z</time>
      </trkpt>
      <trkpt lat="47.82259" lon="7.01828">
        <ele>1099</ele>
        <time>2015-11-11T15:09:04.763Z</time>
      </trkpt>
      <trkpt lat="47.82258" lon="7.01807">
        <ele>1098</ele>
        <time>2015-11-11T15:09:16.764Z</time>
      </trkpt>
      <trkpt lat="47.82252" lon="7.01771">
        <ele>1099</ele>
        <time>2015-11-11T15:09:33.764Z</time>
      </trkpt>
      <trkpt lat="47.82244" lon="7.01725">
        <ele>1101</ele>
        <time>2015-11-11T15:09:56.765Z</time>
      </trkpt>
      <trkpt lat="47.82241" lon="7.01599">
        <ele>1101</ele>
        <time>2015-11-11T15:10:56.771Z</time>
      </trkpt>
      <trkpt lat="47.82243" lon="7.01529">
        <ele>1102</ele>
        <time>2015-11-11T15:11:30.769Z</time>
      </trkpt>
      <trkpt lat="47.82244" lon="7.01485">
        <ele>1107</ele>
        <time>2015-11-11T15:11:55.764Z</time>
      </trkpt>
      <trkpt lat="47.82249" lon="7.01456">
        <ele>1110</ele>
        <time>2015-11-11T15:12:10.766Z</time>
      </trkpt>
      <trkpt lat="47.82261" lon="7.01414">
        <ele>1117</ele>
        <time>2015-11-11T15:12:34.765Z</time>
      </trkpt>
      <trkpt lat="47.8227" lon="7.01399">
        <ele>1117</ele>
        <time>2015-11-11T15:12:45.768Z</time>
      </trkpt>
      <trkpt lat="47.82283" lon="7.01379">
        <ele>1117</ele>
        <time>2015-11-11T15:12:58.765Z</time>
      </trkpt>
      <trkpt lat="47.82286" lon="7.01357">
        <ele>1119</ele>
        <time>2015-11-11T15:13:09.763Z</time>
      </trkpt>
      <trkpt lat="47.82305" lon="7.01262">
        <ele>1127</ele>
        <time>2015-11-11T15:14:02.769Z</time>
      </trkpt>
      <trkpt lat="47.82341" lon="7.0115">
        <ele>1133</ele>
        <time>2015-11-11T15:15:03.758Z</time>
      </trkpt>
      <trkpt lat="47.82349" lon="7.01124">
        <ele>1133</ele>
        <time>2015-11-11T15:15:16.763Z</time>
      </trkpt>
      <trkpt lat="47.82355" lon="7.01106">
        <ele>1134</ele>
        <time>2015-11-11T15:15:27.765Z</time>
      </trkpt>
      <trkpt lat="47.82374" lon="7.01059">
        <ele>1138</ele>
        <time>2015-11-11T15:15:55.78Z</time>
      </trkpt>
      <trkpt lat="47.8238" lon="7.01038">
        <ele>1139</ele>
        <time>2015-11-11T15:16:05.759Z</time>
      </trkpt>
      <trkpt lat="47.82397" lon="7.01008">
        <ele>1138</ele>
        <time>2015-11-11T15:16:25.756Z</time>
      </trkpt>
      <trkpt lat="47.82406" lon="7.0098">
        <ele>1141</ele>
        <time>2015-11-11T15:16:39.754Z</time>
      </trkpt>
      <trkpt lat="47.82417" lon="7.00969">
        <ele>1138</ele>
        <time>2015-11-11T15:16:50.759Z</time>
      </trkpt>
      <trkpt lat="47.82476" lon="7.00889">
        <ele>1143</ele>
        <time>2015-11-11T15:17:51.755Z</time>
      </trkpt>
      <trkpt lat="47.82517" lon="7.0084">
        <ele>1143</ele>
        <time>2015-11-11T15:18:29.756Z</time>
      </trkpt>
      <trkpt lat="47.82527" lon="7.00825">
        <ele>1148</ele>
        <time>2015-11-11T15:18:39.756Z</time>
      </trkpt>
      <trkpt lat="47.82569" lon="7.00765">
        <ele>1151</ele>
        <time>2015-11-11T15:19:19.756Z</time>
      </trkpt>
      <trkpt lat="47.82579" lon="7.00751">
        <ele>1152</ele>
        <time>2015-11-11T15:19:30.758Z</time>
      </trkpt>
      <trkpt lat="47.82632" lon="7.00685">
        <ele>1154</ele>
        <time>2015-11-11T15:20:24.754Z</time>
      </trkpt>
      <trkpt lat="47.82657" lon="7.0065">
        <ele>1157</ele>
        <time>2015-11-11T15:20:49.76Z</time>
      </trkpt>
      <trkpt lat="47.82673" lon="7.00629">
        <ele>1158</ele>
        <time>2015-11-11T15:21:06.756Z</time>
      </trkpt>
      <trkpt lat="47.82687" lon="7.00624">
        <ele>1158</ele>
        <time>2015-11-11T15:21:23.761Z</time>
      </trkpt>
      <trkpt lat="47.82705" lon="7.00618">
        <ele>1159</ele>
        <time>2015-11-11T15:21:38.76Z</time>
      </trkpt>
      <trkpt lat="47.82747" lon="7.00587">
        <ele>1164</ele>
        <time>2015-11-11T15:22:14.758Z</time>
      </trkpt>
      <trkpt lat="47.82761" lon="7.00578">
        <ele>1165</ele>
        <time>2015-11-11T15:22:24.759Z</time>
      </trkpt>
      <trkpt lat="47.82773" lon="7.00565">
        <ele>1164</ele>
        <time>2015-11-11T15:22:37.759Z</time>
      </trkpt>
      <trkpt lat="47.82802" lon="7.00537">
        <ele>1165</ele>
        <time>2015-11-11T15:23:02.76Z</time>
      </trkpt>
      <trkpt lat="47.82814" lon="7.00526">
        <ele>1165</ele>
        <time>2015-11-11T15:23:13.756Z</time>
      </trkpt>
      <trkpt lat="47.8283" lon="7.0052">
        <ele>1166</ele>
        <time>2015-11-11T15:23:29.758Z</time>
      </trkpt>
      <trkpt lat="47.82838" lon="7.00501">
        <ele>1168</ele>
        <time>2015-11-11T15:23:38.756Z</time>
      </trkpt>
      <trkpt lat="47.82889" lon="7.0046">
        <ele>1167</ele>
        <time>2015-11-11T15:24:28.759Z</time>
      </trkpt>
      <trkpt lat="47.8289" lon="7.00452">
        <ele>1167</ele>
        <time>2015-11-11T15:25:28.771Z</time>
      </trkpt>
      <trkpt lat="47.8289" lon="7.00455">
        <ele>1167</ele>
        <time>2015-11-11T15:26:28.778Z</time>
      </trkpt>
      <trkpt lat="47.82889" lon="7.00453">
        <ele>1167</ele>
        <time>2015-11-11T15:27:29.76Z</time>
      </trkpt>
      <trkpt lat="47.82904" lon="7.00442">
        <ele>1167</ele>
        <time>2015-11-11T15:28:03.759Z</time>
      </trkpt>
      <trkpt lat="47.8291" lon="7.00423">
        <ele>1167</ele>
        <time>2015-11-11T15:28:12.758Z</time>
      </trkpt>
      <trkpt lat="47.82919" lon="7.00398">
        <ele>1161</ele>
        <time>2015-11-11T15:28:23.755Z</time>
      </trkpt>
      <trkpt lat="47.82968" lon="7.00286">
        <ele>1153</ele>
        <time>2015-11-11T15:29:23.755Z</time>
      </trkpt>
      <trkpt lat="47.82995" lon="7.00231">
        <ele>1150</ele>
        <time>2015-11-11T15:29:53.756Z</time>
      </trkpt>
      <trkpt lat="47.83006" lon="7.00206">
        <ele>1146</ele>
        <time>2015-11-11T15:30:07.76Z</time>
      </trkpt>
      <trkpt lat="47.83021" lon="7.00178">
        <ele>1145</ele>
        <time>2015-11-11T15:30:28.76Z</time>
      </trkpt>
      <trkpt lat="47.83031" lon="7.00158">
        <ele>1140</ele>
        <time>2015-11-11T15:30:41.761Z</time>
      </trkpt>
      <trkpt lat="47.8305" lon="7.00155">
        <ele>1138</ele>
        <time>2015-11-11T15:31:30.756Z</time>
      </trkpt>
      <trkpt lat="47.83065" lon="7.00169">
        <ele>1142</ele>
        <time>2015-11-11T15:31:41.758Z</time>
      </trkpt>
      <trkpt lat="47.83082" lon="7.00153">
        <ele>1138</ele>
        <time>2015-11-11T15:32:06.756Z</time>
      </trkpt>
      <trkpt lat="47.83101" lon="7.00068">
        <ele>1111</ele>
        <time>2015-11-11T15:32:46.755Z</time>
      </trkpt>
      <trkpt lat="47.83093" lon="7.00001">
        <ele>1107</ele>
        <time>2015-11-11T15:33:28.758Z</time>
      </trkpt>
      <trkpt lat="47.83114" lon="6.9994">
        <ele>1093</ele>
        <time>2015-11-11T15:34:04.756Z</time>
      </trkpt>
      <trkpt lat="47.83143" lon="6.99888">
        <ele>1084</ele>
        <time>2015-11-11T15:34:36.756Z</time>
      </trkpt>
      <trkpt lat="47.83151" lon="6.99868">
        <ele>1083</ele>
        <time>2015-11-11T15:34:48.755Z</time>
      </trkpt>
      <trkpt lat="47.83161" lon="6.99853">
        <ele>1083</ele>
        <time>2015-11-11T15:34:57.755Z</time>
      </trkpt>
      <trkpt lat="47.83185" lon="6.99779">
        <ele>1061</ele>
        <time>2015-11-11T15:35:46.755Z</time>
      </trkpt>
      <trkpt lat="47.83183" lon="6.99756">
        <ele>1062</ele>
        <time>2015-11-11T15:35:56.755Z</time>
      </trkpt>
      <trkpt lat="47.83179" lon="6.99733">
        <ele>1056</ele>
        <time>2015-11-11T15:36:10.759Z</time>
      </trkpt>
      <trkpt lat="47.83173" lon="6.99714">
        <ele>1054</ele>
        <time>2015-11-11T15:36:18.755Z</time>
      </trkpt>
      <trkpt lat="47.83168" lon="6.99692">
        <ele>1054</ele>
        <time>2015-11-11T15:36:30.756Z</time>
      </trkpt>
      <trkpt lat="47.83174" lon="6.99671">
        <ele>1055</ele>
        <time>2015-11-11T15:36:42.756Z</time>
      </trkpt>
      <trkpt lat="47.83183" lon="6.99652">
        <ele>1052</ele>
        <time>2015-11-11T15:36:52.756Z</time>
      </trkpt>
      <trkpt lat="47.83202" lon="6.99622">
        <ele>1050</ele>
        <time>2015-11-11T15:37:11.755Z</time>
      </trkpt>
      <trkpt lat="47.83215" lon="6.99594">
        <ele>1049</ele>
        <time>2015-11-11T15:37:26.751Z</time>
      </trkpt>
      <trkpt lat="47.83246" lon="6.99539">
        <ele>1054</ele>
        <time>2015-11-11T15:37:57.755Z</time>
      </trkpt>
      <trkpt lat="47.83267" lon="6.99524">
        <ele>1046</ele>
        <time>2015-11-11T15:38:12.755Z</time>
      </trkpt>
      <trkpt lat="47.83317" lon="6.99486">
        <ele>1049</ele>
        <time>2015-11-11T15:38:53.758Z</time>
      </trkpt>
      <trkpt lat="47.83342" lon="6.99469">
        <ele>1042</ele>
        <time>2015-11-11T15:39:28.758Z</time>
      </trkpt>
      <trkpt lat="47.8335" lon="6.99452">
        <ele>1044</ele>
        <time>2015-11-11T15:39:39.755Z</time>
      </trkpt>
      <trkpt lat="47.83365" lon="6.9944">
        <ele>1043</ele>
        <time>2015-11-11T15:39:51.76Z</time>
      </trkpt>
      <trkpt lat="47.83378" lon="6.99434">
        <ele>1042</ele>
        <time>2015-11-11T15:39:59.755Z</time>
      </trkpt>
      <trkpt lat="47.83423" lon="6.99417">
        <ele>1038</ele>
        <time>2015-11-11T15:40:51.76Z</time>
      </trkpt>
      <trkpt lat="47.83437" lon="6.99412">
        <ele>1035</ele>
        <time>2015-11-11T15:41:00.755Z</time>
      </trkpt>
      <trkpt lat="47.83455" lon="6.99406">
        <ele>1032</ele>
        <time>2015-11-11T15:41:12.754Z</time>
      </trkpt>
      <trkpt lat="47.83467" lon="6.99391">
        <ele>1031</ele>
        <time>2015-11-11T15:41:20.756Z</time>
      </trkpt>
      <trkpt lat="47.83525" lon="6.99279">
        <ele>1017</ele>
        <time>2015-11-11T15:42:20.756Z</time>
      </trkpt>
      <trkpt lat="47.83574" lon="6.99184">
        <ele>1013</ele>
        <time>2015-11-11T15:43:09.755Z</time>
      </trkpt>
      <trkpt lat="47.83588" lon="6.99175">
        <ele>1004</ele>
        <time>2015-11-11T15:43:18.756Z</time>
      </trkpt>
      <trkpt lat="47.83624" lon="6.99161">
        <ele>999</ele>
        <time>2015-11-11T15:43:41.756Z</time>
      </trkpt>
      <trkpt lat="47.83685" lon="6.99136">
        <ele>983</ele>
        <time>2015-11-11T15:44:21.755Z</time>
      </trkpt>
      <trkpt lat="47.83733" lon="6.99095">
        <ele>980</ele>
        <time>2015-11-11T15:44:56.755Z</time>
      </trkpt>
      <trkpt lat="47.83747" lon="6.99089">
        <ele>979</ele>
        <time>2015-11-11T15:45:05.755Z</time>
      </trkpt>
      <trkpt lat="47.83763" lon="6.99082">
        <ele>980</ele>
        <time>2015-11-11T15:45:17.755Z</time>
      </trkpt>
      <trkpt lat="47.83785" lon="6.99063">
        <ele>981</ele>
        <time>2015-11-11T15:45:35.758Z</time>
      </trkpt>
      <trkpt lat="47.83799" lon="6.99059">
        <ele>981</ele>
        <time>2015-11-11T15:45:44.754Z</time>
      </trkpt>
      <trkpt lat="47.83818" lon="6.99057">
        <ele>979</ele>
        <time>2015-11-11T15:45:58.753Z</time>
      </trkpt>
      <trkpt lat="47.83832" lon="6.99059">
        <ele>978</ele>
        <time>2015-11-11T15:46:06.755Z</time>
      </trkpt>
      <trkpt lat="47.83851" lon="6.99056">
        <ele>975</ele>
        <time>2015-11-11T15:46:20.755Z</time>
      </trkpt>
      <trkpt lat="47.83928" lon="6.99013">
        <ele>975</ele>
        <time>2015-11-11T15:47:20.759Z</time>
      </trkpt>
      <trkpt lat="47.83979" lon="6.98977">
        <ele>977</ele>
        <time>2015-11-11T15:48:01.758Z</time>
      </trkpt>
      <trkpt lat="47.84025" lon="6.98928">
        <ele>980</ele>
        <time>2015-11-11T15:48:43.756Z</time>
      </trkpt>
      <trkpt lat="47.8403" lon="6.98905">
        <ele>980</ele>
        <time>2015-11-11T15:48:59.756Z</time>
      </trkpt>
      <trkpt lat="47.8403" lon="6.98882">
        <ele>979</ele>
        <time>2015-11-11T15:49:10.756Z</time>
      </trkpt>
      <trkpt lat="47.84041" lon="6.98869">
        <ele>979</ele>
        <time>2015-11-11T15:49:38.751Z</time>
      </trkpt>
      <trkpt lat="47.84049" lon="6.98853">
        <ele>979</ele>
        <time>2015-11-11T15:49:53.758Z</time>
      </trkpt>
      <trkpt lat="47.84062" lon="6.9884">
        <ele>980</ele>
        <time>2015-11-11T15:50:06.755Z</time>
      </trkpt>
      <trkpt lat="47.84072" lon="6.98825">
        <ele>977</ele>
        <time>2015-11-11T15:50:19.755Z</time>
      </trkpt>
      <trkpt lat="47.84085" lon="6.98783">
        <ele>989</ele>
        <time>2015-11-11T15:50:38.755Z</time>
      </trkpt>
      <trkpt lat="47.84105" lon="6.98655">
        <ele>970</ele>
        <time>2015-11-11T15:51:35.763Z</time>
      </trkpt>
      <trkpt lat="47.84133" lon="6.98604">
        <ele>973</ele>
        <time>2015-11-11T15:52:06.755Z</time>
      </trkpt>
      <trkpt lat="47.84156" lon="6.98563">
        <ele>970</ele>
        <time>2015-11-11T15:52:30.755Z</time>
      </trkpt>
      <trkpt lat="47.84159" lon="6.98542">
        <ele>967</ele>
        <time>2015-11-11T15:52:41.758Z</time>
      </trkpt>
      <trkpt lat="47.84154" lon="6.98491">
        <ele>971</ele>
        <time>2015-11-11T15:53:02.754Z</time>
      </trkpt>
      <trkpt lat="47.84153" lon="6.98462">
        <ele>968</ele>
        <time>2015-11-11T15:53:16.754Z</time>
      </trkpt>
      <trkpt lat="47.84146" lon="6.98444">
        <ele>969</ele>
        <time>2015-11-11T15:53:25.754Z</time>
      </trkpt>
      <trkpt lat="47.84137" lon="6.98428">
        <ele>968</ele>
        <time>2015-11-11T15:53:35.754Z</time>
      </trkpt>
      <trkpt lat="47.84119" lon="6.98402">
        <ele>970</ele>
        <time>2015-11-11T15:53:54.755Z</time>
      </trkpt>
      <trkpt lat="47.84115" lon="6.98381">
        <ele>970</ele>
        <time>2015-11-11T15:54:09.755Z</time>
      </trkpt>
      <trkpt lat="47.8411" lon="6.98307">
        <ele>977</ele>
        <time>2015-11-11T15:54:41.755Z</time>
      </trkpt>
      <trkpt lat="47.84107" lon="6.98285">
        <ele>977</ele>
        <time>2015-11-11T15:54:51.755Z</time>
      </trkpt>
      <trkpt lat="47.8411" lon="6.98262">
        <ele>977</ele>
        <time>2015-11-11T15:55:02.755Z</time>
      </trkpt>
      <trkpt lat="47.84111" lon="6.98233">
        <ele>981</ele>
        <time>2015-11-11T15:55:15.755Z</time>
      </trkpt>
      <trkpt lat="47.84097" lon="6.98169">
        <ele>977</ele>
        <time>2015-11-11T15:55:53.755Z</time>
      </trkpt>
      <trkpt lat="47.84091" lon="6.98121">
        <ele>976</ele>
        <time>2015-11-11T15:56:13.755Z</time>
      </trkpt>
      <trkpt lat="47.84105" lon="6.98047">
        <ele>963</ele>
        <time>2015-11-11T15:56:46.755Z</time>
      </trkpt>
      <trkpt lat="47.84136" lon="6.97994">
        <ele>952</ele>
        <time>2015-11-11T15:57:18.755Z</time>
      </trkpt>
      <trkpt lat="47.84162" lon="6.97939">
        <ele>948</ele>
        <time>2015-11-11T15:57:48.755Z</time>
      </trkpt>
      <trkpt lat="47.84163" lon="6.97917">
        <ele>948</ele>
        <time>2015-11-11T15:57:59.755Z</time>
      </trkpt>
      <trkpt lat="47.8417" lon="6.97883">
        <ele>942</ele>
        <time>2015-11-11T15:58:14.758Z</time>
      </trkpt>
      <trkpt lat="47.84188" lon="6.97807">
        <ele>930</ele>
        <time>2015-11-11T15:58:54.76Z</time>
      </trkpt>
      <trkpt lat="47.84185" lon="6.97786">
        <ele>929</ele>
        <time>2015-11-11T15:59:05.755Z</time>
      </trkpt>
      <trkpt lat="47.8418" lon="6.97735">
        <ele>930</ele>
        <time>2015-11-11T16:00:05.756Z</time>
      </trkpt>
      <trkpt lat="47.84179" lon="6.97732">
        <ele>931</ele>
        <time>2015-11-11T16:01:05.759Z</time>
      </trkpt>
      <trkpt lat="47.84175" lon="6.97734">
        <ele>931</ele>
        <time>2015-11-11T16:02:05.759Z</time>
      </trkpt>
      <trkpt lat="47.84193" lon="6.97702">
        <ele>931</ele>
        <time>2015-11-11T16:02:41.756Z</time>
      </trkpt>
      <trkpt lat="47.84198" lon="6.97682">
        <ele>932</ele>
        <time>2015-11-11T16:02:51.755Z</time>
      </trkpt>
      <trkpt lat="47.84201" lon="6.97619">
        <ele>938</ele>
        <time>2015-11-11T16:03:29.755Z</time>
      </trkpt>
      <trkpt lat="47.8419" lon="6.97577">
        <ele>944</ele>
        <time>2015-11-11T16:03:50.755Z</time>
      </trkpt>
      <trkpt lat="47.84179" lon="6.97536">
        <ele>944</ele>
        <time>2015-11-11T16:04:12.755Z</time>
      </trkpt>
      <trkpt lat="47.84159" lon="6.97474">
        <ele>957</ele>
        <time>2015-11-11T16:04:44.755Z</time>
      </trkpt>
      <trkpt lat="47.84141" lon="6.97411">
        <ele>961</ele>
        <time>2015-11-11T16:05:26.755Z</time>
      </trkpt>
      <trkpt lat="47.84124" lon="6.97348">
        <ele>963</ele>
        <time>2015-11-11T16:06:00.755Z</time>
      </trkpt>
      <trkpt lat="47.84114" lon="6.97273">
        <ele>961</ele>
        <time>2015-11-11T16:06:35.755Z</time>
      </trkpt>
      <trkpt lat="47.84114" lon="6.97252">
        <ele>961</ele>
        <time>2015-11-11T16:06:45.755Z</time>
      </trkpt>
      <trkpt lat="47.84108" lon="6.97233">
        <ele>961</ele>
        <time>2015-11-11T16:06:53.755Z</time>
      </trkpt>
      <trkpt lat="47.84109" lon="6.97166">
        <ele>962</ele>
        <time>2015-11-11T16:07:24.756Z</time>
      </trkpt>
      <trkpt lat="47.8411" lon="6.9711">
        <ele>961</ele>
        <time>2015-11-11T16:07:52.756Z</time>
      </trkpt>
      <trkpt lat="47.84114" lon="6.97077">
        <ele>963</ele>
        <time>2015-11-11T16:08:07.755Z</time>
      </trkpt>
      <trkpt lat="47.84114" lon="6.97009">
        <ele>965</ele>
        <time>2015-11-11T16:08:42.755Z</time>
      </trkpt>
      <trkpt lat="47.84123" lon="6.96943">
        <ele>972</ele>
        <time>2015-11-11T16:09:22.755Z</time>
      </trkpt>
      <trkpt lat="47.84128" lon="6.96876">
        <ele>982</ele>
        <time>2015-11-11T16:09:54.755Z</time>
      </trkpt>
      <trkpt lat="47.84144" lon="6.96813">
        <ele>989</ele>
        <time>2015-11-11T16:10:31.756Z</time>
      </trkpt>
      <trkpt lat="47.8416" lon="6.96748">
        <ele>993</ele>
        <time>2015-11-11T16:11:06.755Z</time>
      </trkpt>
      <trkpt lat="47.8418" lon="6.96688">
        <ele>984</ele>
        <time>2015-11-11T16:11:39.755Z</time>
      </trkpt>
      <trkpt lat="47.84202" lon="6.96628">
        <ele>984</ele>
        <time>2015-11-11T16:12:09.756Z</time>
      </trkpt>
      <trkpt lat="47.84242" lon="6.96596">
        <ele>985</ele>
        <time>2015-11-11T16:12:47.756Z</time>
      </trkpt>
      <trkpt lat="47.84285" lon="6.96569">
        <ele>988</ele>
        <time>2015-11-11T16:13:17.765Z</time>
      </trkpt>
      <trkpt lat="47.84328" lon="6.96547">
        <ele>988</ele>
        <time>2015-11-11T16:13:46.755Z</time>
      </trkpt>
      <trkpt lat="47.8436" lon="6.96499">
        <ele>995</ele>
        <time>2015-11-11T16:14:21.755Z</time>
      </trkpt>
      <trkpt lat="47.84369" lon="6.96472">
        <ele>994</ele>
        <time>2015-11-11T16:15:04.755Z</time>
      </trkpt>
      <trkpt lat="47.84375" lon="6.96452">
        <ele>995</ele>
        <time>2015-11-11T16:15:14.756Z</time>
      </trkpt>
      <trkpt lat="47.84384" lon="6.96385">
        <ele>1005</ele>
        <time>2015-11-11T16:15:50.755Z</time>
      </trkpt>
      <trkpt lat="47.84401" lon="6.96323">
        <ele>1014</ele>
        <time>2015-11-11T16:16:28.755Z</time>
      </trkpt>
      <trkpt lat="47.84426" lon="6.96268">
        <ele>1010</ele>
        <time>2015-11-11T16:17:00.756Z</time>
      </trkpt>
      <trkpt lat="47.8445" lon="6.9621">
        <ele>1022</ele>
        <time>2015-11-11T16:17:42.755Z</time>
      </trkpt>
      <trkpt lat="47.84478" lon="6.96157">
        <ele>1033</ele>
        <time>2015-11-11T16:18:15.756Z</time>
      </trkpt>
      <trkpt lat="47.84508" lon="6.96107">
        <ele>1032</ele>
        <time>2015-11-11T16:19:02.755Z</time>
      </trkpt>
      <trkpt lat="47.84551" lon="6.96084">
        <ele>1028</ele>
        <time>2015-11-11T16:19:43.755Z</time>
      </trkpt>
      <trkpt lat="47.84564" lon="6.96074">
        <ele>1045</ele>
        <time>2015-11-11T16:19:54.755Z</time>
      </trkpt>
      <trkpt lat="47.84605" lon="6.96031">
        <ele>1044</ele>
        <time>2015-11-11T16:20:25.755Z</time>
      </trkpt>
      <trkpt lat="47.84632" lon="6.95976">
        <ele>1064</ele>
        <time>2015-11-11T16:21:01.755Z</time>
      </trkpt>
      <trkpt lat="47.84654" lon="6.95951">
        <ele>1066</ele>
        <time>2015-11-11T16:21:17.756Z</time>
      </trkpt>
      <trkpt lat="47.84677" lon="6.95928">
        <ele>1060</ele>
        <time>2015-11-11T16:21:42.758Z</time>
      </trkpt>
      <trkpt lat="47.84722" lon="6.95911">
        <ele>1059</ele>
        <time>2015-11-11T16:22:18.764Z</time>
      </trkpt>
      <trkpt lat="47.84757" lon="6.95884">
        <ele>1033</ele>
        <time>2015-11-11T16:23:02.756Z</time>
      </trkpt>
      <trkpt lat="47.84749" lon="6.95865">
        <ele>1060</ele>
        <time>2015-11-11T16:23:12.751Z</time>
      </trkpt>
      <trkpt lat="47.84727" lon="6.95796">
        <ele>1066</ele>
        <time>2015-11-11T16:23:55.755Z</time>
      </trkpt>
      <trkpt lat="47.84696" lon="6.95717">
        <ele>1065</ele>
        <time>2015-11-11T16:24:37.754Z</time>
      </trkpt>
      <trkpt lat="47.84683" lon="6.95652">
        <ele>1062</ele>
        <time>2015-11-11T16:25:21.755Z</time>
      </trkpt>
      <trkpt lat="47.84672" lon="6.95614">
        <ele>1058</ele>
        <time>2015-11-11T16:25:43.754Z</time>
      </trkpt>
      <trkpt lat="47.84669" lon="6.95594">
        <ele>1062</ele>
        <time>2015-11-11T16:25:54.755Z</time>
      </trkpt>
      <trkpt lat="47.84672" lon="6.95573">
        <ele>1059</ele>
        <time>2015-11-11T16:26:04.755Z</time>
      </trkpt>
      <trkpt lat="47.84671" lon="6.95551">
        <ele>1052</ele>
        <time>2015-11-11T16:26:16.755Z</time>
      </trkpt>
      <trkpt lat="47.84668" lon="6.95468">
        <ele>1047</ele>
        <time>2015-11-11T16:26:53.755Z</time>
      </trkpt>
      <trkpt lat="47.84665" lon="6.954">
        <ele>1050</ele>
        <time>2015-11-11T16:27:22.756Z</time>
      </trkpt>
      <trkpt lat="47.84677" lon="6.95354">
        <ele>1042</ele>
        <time>2015-11-11T16:27:43.755Z</time>
      </trkpt>
      <trkpt lat="47.84691" lon="6.95321">
        <ele>1041</ele>
        <time>2015-11-11T16:28:00.76Z</time>
      </trkpt>
      <trkpt lat="47.84697" lon="6.95245">
        <ele>1042</ele>
        <time>2015-11-11T16:28:41.761Z</time>
      </trkpt>
      <trkpt lat="47.84698" lon="6.95176">
        <ele>1042</ele>
        <time>2015-11-11T16:29:18.755Z</time>
      </trkpt>
      <trkpt lat="47.84721" lon="6.95115">
        <ele>1045</ele>
        <time>2015-11-11T16:29:47.755Z</time>
      </trkpt>
      <trkpt lat="47.84741" lon="6.95077">
        <ele>1049</ele>
        <time>2015-11-11T16:30:14.755Z</time>
      </trkpt>
      <trkpt lat="47.84756" lon="6.95038">
        <ele>1037</ele>
        <time>2015-11-11T16:30:36.755Z</time>
      </trkpt>
      <trkpt lat="47.84754" lon="6.94966">
        <ele>1039</ele>
        <time>2015-11-11T16:31:09.755Z</time>
      </trkpt>
      <trkpt lat="47.84748" lon="6.9494">
        <ele>1053</ele>
        <time>2015-11-11T16:31:23.755Z</time>
      </trkpt>
      <trkpt lat="47.84746" lon="6.94917">
        <ele>1051</ele>
        <time>2015-11-11T16:31:35.755Z</time>
      </trkpt>
      <trkpt lat="47.84747" lon="6.9487">
        <ele>1048</ele>
        <time>2015-11-11T16:32:00.754Z</time>
      </trkpt>
      <trkpt lat="47.84752" lon="6.94802">
        <ele>1039</ele>
        <time>2015-11-11T16:32:40.755Z</time>
      </trkpt>
      <trkpt lat="47.84772" lon="6.9476">
        <ele>1040</ele>
        <time>2015-11-11T16:33:12.756Z</time>
      </trkpt>
      <trkpt lat="47.84785" lon="6.94696">
        <ele>1048</ele>
        <time>2015-11-11T16:33:50.758Z</time>
      </trkpt>
      <trkpt lat="47.84786" lon="6.94633">
        <ele>1066</ele>
        <time>2015-11-11T16:34:51.761Z</time>
      </trkpt>
      <trkpt lat="47.84773" lon="6.94621">
        <ele>1068</ele>
        <time>2015-11-11T16:35:52.763Z</time>
      </trkpt>
      <trkpt lat="47.84778" lon="6.94595">
        <ele>1072</ele>
        <time>2015-11-11T16:36:53.764Z</time>
      </trkpt>
      <trkpt lat="47.84804" lon="6.94539">
        <ele>1090</ele>
        <time>2015-11-11T16:37:42.758Z</time>
      </trkpt>
      <trkpt lat="47.8483" lon="6.94485">
        <ele>1106</ele>
        <time>2015-11-11T16:38:34.756Z</time>
      </trkpt>
      <trkpt lat="47.84863" lon="6.94437">
        <ele>1101</ele>
        <time>2015-11-11T16:39:31.758Z</time>
      </trkpt>
      <trkpt lat="47.84881" lon="6.94373">
        <ele>1115</ele>
        <time>2015-11-11T16:40:08.758Z</time>
      </trkpt>
      <trkpt lat="47.8491" lon="6.9432">
        <ele>1121</ele>
        <time>2015-11-11T16:40:44.758Z</time>
      </trkpt>
      <trkpt lat="47.84943" lon="6.94265">
        <ele>1119</ele>
        <time>2015-11-11T16:41:30.758Z</time>
      </trkpt>
      <trkpt lat="47.84986" lon="6.9423">
        <ele>1131</ele>
        <time>2015-11-11T16:42:11.76Z</time>
      </trkpt>
      <trkpt lat="47.8503" lon="6.94212">
        <ele>1134</ele>
        <time>2015-11-11T16:42:50.759Z</time>
      </trkpt>
      <trkpt lat="47.85073" lon="6.94189">
        <ele>1140</ele>
        <time>2015-11-11T16:43:47.758Z</time>
      </trkpt>
      <trkpt lat="47.85103" lon="6.94138">
        <ele>1154</ele>
        <time>2015-11-11T16:44:31.758Z</time>
      </trkpt>
      <trkpt lat="47.85137" lon="6.94086">
        <ele>1156</ele>
        <time>2015-11-11T16:45:24.759Z</time>
      </trkpt>
      <trkpt lat="47.8517" lon="6.9404">
        <ele>1157</ele>
        <time>2015-11-11T16:46:11.759Z</time>
      </trkpt>
      <trkpt lat="47.85173" lon="6.93972">
        <ele>1165</ele>
        <time>2015-11-11T16:46:50.758Z</time>
      </trkpt>
      <trkpt lat="47.85157" lon="6.93909">
        <ele>1177</ele>
        <time>2015-11-11T16:47:27.756Z</time>
      </trkpt>
      <trkpt lat="47.85133" lon="6.93852">
        <ele>1176</ele>
        <time>2015-11-11T16:47:59.758Z</time>
      </trkpt>
      <trkpt lat="47.85096" lon="6.93812">
        <ele>1175</ele>
        <time>2015-11-11T16:48:36.756Z</time>
      </trkpt>
      <trkpt lat="47.85074" lon="6.93752">
        <ele>1178</ele>
        <time>2015-11-11T16:49:12.758Z</time>
      </trkpt>
      <trkpt lat="47.85051" lon="6.93709">
        <ele>1176</ele>
        <time>2015-11-11T16:49:38.758Z</time>
      </trkpt>
      <trkpt lat="47.85015" lon="6.93647">
        <ele>1174</ele>
        <time>2015-11-11T16:50:18.768Z</time>
      </trkpt>
      <trkpt lat="47.8499" lon="6.93588">
        <ele>1173</ele>
        <time>2015-11-11T16:50:54.764Z</time>
      </trkpt>
      <trkpt lat="47.84968" lon="6.93539">
        <ele>1171</ele>
        <time>2015-11-11T16:51:54.775Z</time>
      </trkpt>
      <trkpt lat="47.84942" lon="6.93484">
        <ele>1172</ele>
        <time>2015-11-11T16:52:30.755Z</time>
      </trkpt>
      <trkpt lat="47.84931" lon="6.93454">
        <ele>1172</ele>
        <time>2015-11-11T16:53:30.76Z</time>
      </trkpt>
      <trkpt lat="47.84932" lon="6.93454">
        <ele>1172</ele>
        <time>2015-11-11T16:54:31.76Z</time>
      </trkpt>
      <trkpt lat="47.84921" lon="6.93404">
        <ele>1173</ele>
        <time>2015-11-11T16:55:31.765Z</time>
      </trkpt>
      <trkpt lat="47.84922" lon="6.93403">
        <ele>1172</ele>
        <time>2015-11-11T16:56:32.765Z</time>
      </trkpt>
      <trkpt lat="47.84921" lon="6.93379">
        <ele>1168</ele>
        <time>2015-11-11T16:56:44.755Z</time>
      </trkpt>
      <trkpt lat="47.84915" lon="6.93312">
        <ele>1176</ele>
        <time>2015-11-11T16:57:33.758Z</time>
      </trkpt>
      <trkpt lat="47.84896" lon="6.93252">
        <ele>1173</ele>
        <time>2015-11-11T16:58:05.756Z</time>
      </trkpt>
      <trkpt lat="47.84883" lon="6.93186">
        <ele>1164</ele>
        <time>2015-11-11T16:58:36.758Z</time>
      </trkpt>
      <trkpt lat="47.84863" lon="6.93126">
        <ele>1151</ele>
        <time>2015-11-11T16:59:16.754Z</time>
      </trkpt>
      <trkpt lat="47.84833" lon="6.93023">
        <ele>1136</ele>
        <time>2015-11-11T17:00:14.756Z</time>
      </trkpt>
      <trkpt lat="47.84837" lon="6.92996">
        <ele>1134</ele>
        <time>2015-11-11T17:00:29.756Z</time>
      </trkpt>
      <trkpt lat="47.84846" lon="6.92945">
        <ele>1124</ele>
        <time>2015-11-11T17:01:06.758Z</time>
      </trkpt>
      <trkpt lat="47.84853" lon="6.92928">
        <ele>1124</ele>
        <time>2015-11-11T17:01:16.758Z</time>
      </trkpt>
      <trkpt lat="47.84856" lon="6.92893">
        <ele>1117</ele>
        <time>2015-11-11T17:01:37.755Z</time>
      </trkpt>
      <trkpt lat="47.84865" lon="6.92845">
        <ele>1113</ele>
        <time>2015-11-11T17:02:01.759Z</time>
      </trkpt>
      <trkpt lat="47.84856" lon="6.92779">
        <ele>1102</ele>
        <time>2015-11-11T17:02:41.756Z</time>
      </trkpt>
      <trkpt lat="47.84859" lon="6.92754">
        <ele>1101</ele>
        <time>2015-11-11T17:02:52.756Z</time>
      </trkpt>
      <trkpt lat="47.84855" lon="6.92647">
        <ele>1086</ele>
        <time>2015-11-11T17:03:48.758Z</time>
      </trkpt>
      <trkpt lat="47.84859" lon="6.92576">
        <ele>1081</ele>
        <time>2015-11-11T17:04:23.756Z</time>
      </trkpt>
      <trkpt lat="47.84827" lon="6.92527">
        <ele>1073</ele>
        <time>2015-11-11T17:05:04.754Z</time>
      </trkpt>
      <trkpt lat="47.84862" lon="6.92509">
        <ele>1075</ele>
        <time>2015-11-11T17:06:04.755Z</time>
      </trkpt>
      <trkpt lat="47.84872" lon="6.92465">
        <ele>1073</ele>
        <time>2015-11-11T17:07:04.76Z</time>
      </trkpt>
      <trkpt lat="47.84902" lon="6.92456">
        <ele>1077</ele>
        <time>2015-11-11T17:08:05.755Z</time>
      </trkpt>
      <trkpt lat="47.84937" lon="6.92466">
        <ele>1089</ele>
        <time>2015-11-11T17:09:05.758Z</time>
      </trkpt>
      <trkpt lat="47.84973" lon="6.92461">
        <ele>1093</ele>
        <time>2015-11-11T17:10:06.755Z</time>
      </trkpt>
      <trkpt lat="47.84987" lon="6.9245">
        <ele>1097</ele>
        <time>2015-11-11T17:10:13.755Z</time>
      </trkpt>
      <trkpt lat="47.85023" lon="6.92429">
        <ele>1099</ele>
        <time>2015-11-11T17:10:45.755Z</time>
      </trkpt>
      <trkpt lat="47.85076" lon="6.92397">
        <ele>1114</ele>
        <time>2015-11-11T17:11:35.755Z</time>
      </trkpt>
      <trkpt lat="47.85105" lon="6.92359">
        <ele>1111</ele>
        <time>2015-11-11T17:12:35.755Z</time>
      </trkpt>
      <trkpt lat="47.85152" lon="6.92317">
        <ele>1128</ele>
        <time>2015-11-11T17:13:07.754Z</time>
      </trkpt>
      <trkpt lat="47.8521" lon="6.92286">
        <ele>1113</ele>
        <time>2015-11-11T17:14:01.755Z</time>
      </trkpt>
      <trkpt lat="47.85246" lon="6.92243">
        <ele>1123</ele>
        <time>2015-11-11T17:14:56.756Z</time>
      </trkpt>
      <trkpt lat="47.85257" lon="6.92215">
        <ele>1104</ele>
        <time>2015-11-11T17:15:12.756Z</time>
      </trkpt>
      <trkpt lat="47.85253" lon="6.92148">
        <ele>1120</ele>
        <time>2015-11-11T17:15:54.756Z</time>
      </trkpt>
      <trkpt lat="47.8527" lon="6.92112">
        <ele>1117</ele>
        <time>2015-11-11T17:16:18.755Z</time>
      </trkpt>
      <trkpt lat="47.85278" lon="6.92096">
        <ele>1117</ele>
        <time>2015-11-11T17:16:36.755Z</time>
      </trkpt>
      <trkpt lat="47.85286" lon="6.92076">
        <ele>1127</ele>
        <time>2015-11-11T17:16:54.755Z</time>
      </trkpt>
      <trkpt lat="47.85321" lon="6.92046">
        <ele>1120</ele>
        <time>2015-11-11T17:17:54.76Z</time>
      </trkpt>
      <trkpt lat="47.85336" lon="6.92038">
        <ele>1093</ele>
        <time>2015-11-11T17:18:02.755Z</time>
      </trkpt>
      <trkpt lat="47.85362" lon="6.92021">
        <ele>1092</ele>
        <time>2015-11-11T17:18:13.755Z</time>
      </trkpt>
      <trkpt lat="47.85402" lon="6.91987">
        <ele>1099</ele>
        <time>2015-11-11T17:19:13.755Z</time>
      </trkpt>
      <trkpt lat="47.85432" lon="6.91935">
        <ele>1091</ele>
        <time>2015-11-11T17:19:49.753Z</time>
      </trkpt>
      <trkpt lat="47.85444" lon="6.91914">
        <ele>1101</ele>
        <time>2015-11-11T17:20:16.755Z</time>
      </trkpt>
      <trkpt lat="47.85457" lon="6.91833">
        <ele>1099</ele>
        <time>2015-11-11T17:21:09.755Z</time>
      </trkpt>
      <trkpt lat="47.85458" lon="6.91813">
        <ele>1098</ele>
        <time>2015-11-11T17:21:22.755Z</time>
      </trkpt>
      <trkpt lat="47.85472" lon="6.91807">
        <ele>1096</ele>
        <time>2015-11-11T17:22:06.76Z</time>
      </trkpt>
      <trkpt lat="47.85485" lon="6.91816">
        <ele>1095</ele>
        <time>2015-11-11T17:22:19.755Z</time>
      </trkpt>
      <trkpt lat="47.855" lon="6.91834">
        <ele>1090</ele>
        <time>2015-11-11T17:22:37.756Z</time>
      </trkpt>
      <trkpt lat="47.85514" lon="6.91842">
        <ele>1088</ele>
        <time>2015-11-11T17:23:03.76Z</time>
      </trkpt>
    </trkseg>
  </trk>
</gpx>